ETH3708 EBLG-VHHH
Flight info
| Callsign | ETH3708 |
|---|---|
| Flight time | 10h 42m |
| Altitude | 29000 |
| Route | LNO DCT KENUM N853 ONUNE DCT LARBU DCT BODLA DCT GOMED/K0913F290 DCT ITVUL/N0492F290 DCT LAUGA DCT IGORO/K0911F290 M864 IBROT T784 OTKOL T787 OKSUD T778 MOF T750 PODUT L993 TUSEP N126 RULAD/K0919S0885 A460 XKC L888 SADAN Y1 OMBON W245 OVRAL B330 KWE W181 DUDIT A599 POU R473 SIERA |
| Aircraft | B77L/H-SDE1E2E3FGHIJ2J3J4J5M1RWXY/LB1D1 |
Departure
| Time | 2026-05-05 20:48 |
|---|---|
| Airport | Liège Airport (EBLG) |
Arrival
| Time | 2026-05-06 07:30 |
|---|---|
| Airport | Hong Kong International Airport (VHHH) |
| Time | Latitude | Longitude | Altitude | Speed | Heading |
|---|---|---|---|---|---|
| 2026-05-05 20:35 | 50.63654 | 5.43169 | 643 ft | 0 kts | 315° |
| 2026-05-05 20:41 | 50.63652 | 5.43171 | 643 ft | 3 kts | 315° |
| 2026-05-05 20:41 | 50.63638 | 5.43193 | 649 ft | 3 kts | 316° |
| 2026-05-05 20:41 | 50.63623 | 5.43216 | 647 ft | 3 kts | 315° |
| 2026-05-05 20:42 | 50.63609 | 5.43238 | 646 ft | 3 kts | 312° |
| 2026-05-05 20:42 | 50.63596 | 5.43260 | 646 ft | 2 kts | 322° |
| 2026-05-05 20:42 | 50.63584 | 5.43272 | 651 ft | 2 kts | 352° |
| 2026-05-05 20:42 | 50.63571 | 5.43271 | 647 ft | 2 kts | 24° |
| 2026-05-05 20:43 | 50.63563 | 5.43265 | 647 ft | 1 kts | 34° |
| 2026-05-05 20:43 | 50.63556 | 5.43257 | 645 ft | 1 kts | 40° |
| 2026-05-05 20:43 | 50.63552 | 5.43251 | 645 ft | 0 kts | 43° |
| 2026-05-05 20:45 | 50.63622 | 5.43500 | 648 ft | 21 kts | 126° |
| 2026-05-05 20:45 | 50.63528 | 5.43616 | 640 ft | 12 kts | 178° |
| 2026-05-05 20:45 | 50.63452 | 5.43525 | 643 ft | 19 kts | 225° |
| 2026-05-05 20:46 | 50.63355 | 5.43370 | 648 ft | 20 kts | 224° |
| 2026-05-05 20:46 | 50.63257 | 5.43215 | 652 ft | 20 kts | 225° |
| 2026-05-05 20:46 | 50.63160 | 5.43061 | 647 ft | 20 kts | 226° |
| 2026-05-05 20:46 | 50.63042 | 5.42962 | 654 ft | 20 kts | 173° |
| 2026-05-05 20:47 | 50.62936 | 5.43053 | 666 ft | 5 kts | 136° |
| 2026-05-05 20:47 | 50.62922 | 5.43099 | 665 ft | 4 kts | 85° |
| 2026-05-05 20:47 | 50.62940 | 5.43140 | 664 ft | 4 kts | 50° |
| 2026-05-05 20:47 | 50.62962 | 5.43177 | 663 ft | 7 kts | 44° |
| 2026-05-05 20:48 | 50.63133 | 5.43450 | 656 ft | 72 kts | 46° |
| 2026-05-05 20:48 | 50.63657 | 5.44278 | 634 ft | 143 kts | 45° |
| 2026-05-05 20:48 | 50.64522 | 5.45638 | 657 ft | 196 kts | 44° |
| 2026-05-05 20:48 | 50.65483 | 5.47131 | 1318 ft | 191 kts | 43° |
| 2026-05-05 20:49 | 50.66482 | 5.48626 | 1927 ft | 203 kts | 41° |
| 2026-05-05 20:49 | 50.67526 | 5.50157 | 2587 ft | 209 kts | 44° |
| 2026-05-05 20:49 | 50.68602 | 5.51807 | 2944 ft | 219 kts | 45° |
| 2026-05-05 20:49 | 50.69663 | 5.53564 | 3392 ft | 223 kts | 47° |
| 2026-05-05 20:50 | 50.70748 | 5.55375 | 3767 ft | 231 kts | 46° |
| 2026-05-05 20:50 | 50.71927 | 5.57143 | 4083 ft | 237 kts | 31° |
| 2026-05-05 20:50 | 50.73462 | 5.57786 | 4437 ft | 241 kts | 352° |
| 2026-05-05 20:50 | 50.74975 | 5.56713 | 4869 ft | 244 kts | 315° |
| 2026-05-05 20:51 | 50.75860 | 5.54436 | 5227 ft | 247 kts | 286° |
| 2026-05-05 20:51 | 50.76308 | 5.51784 | 5528 ft | 254 kts | 286° |
| 2026-05-05 20:51 | 50.76801 | 5.49066 | 5980 ft | 258 kts | 286° |
| 2026-05-05 20:51 | 50.77295 | 5.46322 | 6487 ft | 261 kts | 285° |
| 2026-05-05 20:52 | 50.77789 | 5.43532 | 6942 ft | 265 kts | 285° |
| 2026-05-05 20:52 | 50.78254 | 5.40648 | 7232 ft | 279 kts | 283° |
| 2026-05-05 20:52 | 50.78678 | 5.37592 | 7610 ft | 287 kts | 282° |
| 2026-05-05 20:52 | 50.79101 | 5.34512 | 8153 ft | 291 kts | 283° |
| 2026-05-05 20:53 | 50.79542 | 5.31367 | 8703 ft | 295 kts | 283° |
| 2026-05-05 20:53 | 50.79992 | 5.28176 | 9276 ft | 298 kts | 283° |
| 2026-05-05 20:53 | 50.80447 | 5.24964 | 9871 ft | 300 kts | 282° |
| 2026-05-05 20:53 | 50.80687 | 5.21685 | 10158 ft | 306 kts | 262° |
| 2026-05-05 20:54 | 50.79934 | 5.18478 | 10287 ft | 321 kts | 231° |
| 2026-05-05 20:54 | 50.78209 | 5.16147 | 10431 ft | 337 kts | 205° |
| 2026-05-05 20:54 | 50.75895 | 5.15264 | 10575 ft | 352 kts | 179° |
| 2026-05-05 20:54 | 50.73455 | 5.15630 | 10711 ft | 361 kts | 172° |
| 2026-05-05 20:55 | 50.70972 | 5.16330 | 11089 ft | 364 kts | 162° |
| 2026-05-05 20:55 | 50.68753 | 5.18284 | 11521 ft | 372 kts | 136° |
| 2026-05-05 20:55 | 50.67285 | 5.21566 | 12089 ft | 374 kts | 116° |
| 2026-05-05 20:55 | 50.66172 | 5.25291 | 12401 ft | 378 kts | 119° |
| 2026-05-05 20:56 | 50.64817 | 5.28903 | 12876 ft | 384 kts | 123° |
| 2026-05-05 20:56 | 50.63378 | 5.32443 | 13612 ft | 384 kts | 124° |
| 2026-05-05 20:56 | 50.61919 | 5.36018 | 14187 ft | 388 kts | 123° |
| 2026-05-05 20:56 | 50.60464 | 5.39643 | 14678 ft | 393 kts | 123° |
| 2026-05-05 20:57 | 50.59004 | 5.43328 | 15228 ft | 397 kts | 123° |
| 2026-05-05 20:57 | 50.57544 | 5.47030 | 15770 ft | 400 kts | 123° |
| 2026-05-05 20:57 | 50.56111 | 5.50721 | 16260 ft | 399 kts | 119° |
| 2026-05-05 20:57 | 50.55157 | 5.54867 | 16453 ft | 409 kts | 97° |
| 2026-05-05 20:58 | 50.55344 | 5.59335 | 16902 ft | 414 kts | 75° |
| 2026-05-05 20:58 | 50.56393 | 5.63548 | 17440 ft | 412 kts | 64° |
| 2026-05-05 20:58 | 50.57623 | 5.67605 | 17716 ft | 420 kts | 65° |
| 2026-05-05 20:58 | 50.58817 | 5.71747 | 18195 ft | 423 kts | 66° |
| 2026-05-05 20:59 | 50.59620 | 5.74695 | 18594 ft | 423 kts | 68° |
| 2026-05-05 20:59 | 50.60741 | 5.78995 | 19091 ft | 425 kts | 68° |
| 2026-05-05 20:59 | 50.61854 | 5.83334 | 19508 ft | 428 kts | 69° |
| 2026-05-05 20:59 | 50.62976 | 5.87705 | 19943 ft | 431 kts | 69° |
| 2026-05-05 21:00 | 50.64092 | 5.92040 | 20431 ft | 432 kts | 69° |
| 2026-05-05 21:00 | 50.65229 | 5.96437 | 20918 ft | 434 kts | 69° |
| 2026-05-05 21:00 | 50.66374 | 6.00865 | 21372 ft | 436 kts | 69° |
| 2026-05-05 21:00 | 50.67520 | 6.05302 | 21804 ft | 439 kts | 69° |
| 2026-05-05 21:01 | 50.68675 | 6.09775 | 22226 ft | 442 kts | 69° |
| 2026-05-05 21:01 | 50.69834 | 6.14276 | 22664 ft | 444 kts | 69° |
| 2026-05-05 21:01 | 50.71017 | 6.18784 | 23106 ft | 446 kts | 66° |
| 2026-05-05 21:01 | 50.72517 | 6.23085 | 23445 ft | 451 kts | 57° |
| 2026-05-05 21:02 | 50.74439 | 6.27019 | 23793 ft | 454 kts | 49° |
| 2026-05-05 21:02 | 50.76694 | 6.30532 | 24146 ft | 456 kts | 43° |
| 2026-05-05 21:02 | 50.79077 | 6.33860 | 24524 ft | 458 kts | 43° |
| 2026-05-05 21:02 | 50.81441 | 6.37242 | 24873 ft | 460 kts | 44° |
| 2026-05-05 21:03 | 50.83803 | 6.40671 | 25219 ft | 462 kts | 44° |
| 2026-05-05 21:03 | 50.86168 | 6.44131 | 25562 ft | 464 kts | 44° |
| 2026-05-05 21:03 | 50.88538 | 6.47610 | 25918 ft | 466 kts | 45° |
| 2026-05-05 21:04 | 50.90220 | 6.50084 | 26171 ft | 467 kts | 45° |
| 2026-05-05 21:04 | 50.92610 | 6.53601 | 26505 ft | 469 kts | 45° |
| 2026-05-05 21:04 | 50.95007 | 6.57130 | 26835 ft | 471 kts | 45° |
| 2026-05-05 21:04 | 50.97415 | 6.60678 | 27158 ft | 474 kts | 45° |
| 2026-05-05 21:05 | 50.99832 | 6.64245 | 27463 ft | 476 kts | 45° |
| 2026-05-05 21:05 | 51.02084 | 6.67678 | 27743 ft | 477 kts | 49° |
| 2026-05-05 21:05 | 51.04238 | 6.71672 | 28029 ft | 477 kts | 56° |
| 2026-05-05 21:05 | 51.06160 | 6.75972 | 28339 ft | 478 kts | 57° |
| 2026-05-05 21:06 | 51.08118 | 6.80261 | 28618 ft | 480 kts | 56° |
| 2026-05-05 21:06 | 51.10139 | 6.84518 | 28790 ft | 485 kts | 55° |
| 2026-05-05 21:06 | 51.14232 | 6.93125 | 28874 ft | 491 kts | 56° |
| 2026-05-05 21:07 | 51.18349 | 7.01875 | 28829 ft | 492 kts | 56° |
| 2026-05-05 21:07 | 51.22435 | 7.10597 | 28856 ft | 490 kts | 56° |
| 2026-05-05 21:08 | 51.26514 | 7.19327 | 28844 ft | 490 kts | 56° |
| 2026-05-05 21:08 | 51.30552 | 7.28004 | 28845 ft | 490 kts | 56° |
| 2026-05-05 21:09 | 51.34617 | 7.36761 | 28831 ft | 491 kts | 56° |
| 2026-05-05 21:09 | 51.38299 | 7.45902 | 28830 ft | 486 kts | 67° |
| 2026-05-05 21:10 | 51.41150 | 7.55726 | 28824 ft | 487 kts | 68° |
| 2026-05-05 21:10 | 51.44053 | 7.65538 | 28827 ft | 488 kts | 67° |
| 2026-05-05 21:11 | 51.47005 | 7.75425 | 28822 ft | 489 kts | 67° |
| 2026-05-05 21:11 | 51.49923 | 7.85217 | 28832 ft | 490 kts | 68° |
| 2026-05-05 21:12 | 51.52855 | 7.95113 | 28826 ft | 491 kts | 68° |
| 2026-05-05 21:12 | 51.55799 | 8.05101 | 28828 ft | 492 kts | 68° |
| 2026-05-05 21:13 | 51.58700 | 8.14984 | 28828 ft | 493 kts | 68° |
| 2026-05-05 21:13 | 51.61622 | 8.24977 | 28828 ft | 493 kts | 68° |
| 2026-05-05 21:14 | 51.64533 | 8.34975 | 28828 ft | 494 kts | 68° |
| 2026-05-05 21:14 | 51.67445 | 8.45017 | 28829 ft | 495 kts | 68° |
| 2026-05-05 21:15 | 51.70351 | 8.55084 | 28830 ft | 496 kts | 68° |
| 2026-05-05 21:15 | 51.73252 | 8.65175 | 28829 ft | 497 kts | 68° |
| 2026-05-05 21:16 | 51.76154 | 8.75313 | 28829 ft | 498 kts | 68° |
| 2026-05-05 21:16 | 51.79051 | 8.85477 | 28833 ft | 499 kts | 68° |
| 2026-05-05 21:17 | 51.81945 | 8.95676 | 28824 ft | 500 kts | 68° |
| 2026-05-05 21:17 | 51.84838 | 9.05914 | 28831 ft | 501 kts | 68° |
| 2026-05-05 21:18 | 51.87728 | 9.16185 | 28834 ft | 501 kts | 68° |
| 2026-05-05 21:18 | 51.90664 | 9.26445 | 28828 ft | 503 kts | 67° |
| 2026-05-05 21:19 | 51.93704 | 9.36648 | 28831 ft | 503 kts | 67° |
| 2026-05-05 21:19 | 51.96751 | 9.46878 | 28828 ft | 503 kts | 67° |
| 2026-05-05 21:20 | 51.99769 | 9.57123 | 28832 ft | 503 kts | 68° |
| 2026-05-05 21:20 | 52.02770 | 9.67394 | 28830 ft | 504 kts | 68° |
| 2026-05-05 21:21 | 52.05765 | 9.77693 | 28834 ft | 504 kts | 68° |
| 2026-05-05 21:21 | 52.08752 | 9.88009 | 28834 ft | 505 kts | 68° |
| 2026-05-05 21:22 | 52.11736 | 9.98355 | 28835 ft | 506 kts | 68° |
| 2026-05-05 21:22 | 52.14715 | 10.08732 | 28836 ft | 506 kts | 68° |
| 2026-05-05 21:23 | 52.17690 | 10.19138 | 28848 ft | 507 kts | 68° |
| 2026-05-05 21:23 | 52.20660 | 10.29570 | 28847 ft | 508 kts | 68° |
| 2026-05-05 21:24 | 52.23627 | 10.40044 | 28854 ft | 509 kts | 68° |
| 2026-05-05 21:24 | 52.26590 | 10.50545 | 28852 ft | 510 kts | 68° |
| 2026-05-05 21:25 | 52.29548 | 10.61080 | 28854 ft | 511 kts | 68° |
| 2026-05-05 21:25 | 52.32504 | 10.71653 | 28854 ft | 512 kts | 68° |
| 2026-05-05 21:26 | 52.35455 | 10.82256 | 28856 ft | 513 kts | 68° |
| 2026-05-05 21:26 | 52.38402 | 10.92894 | 28847 ft | 514 kts | 68° |
| 2026-05-05 21:27 | 52.41347 | 11.03571 | 28855 ft | 514 kts | 68° |
| 2026-05-05 21:27 | 52.44284 | 11.14271 | 28850 ft | 515 kts | 68° |
| 2026-05-05 21:28 | 52.47213 | 11.24991 | 28844 ft | 516 kts | 68° |
| 2026-05-05 21:28 | 52.50139 | 11.35751 | 28868 ft | 516 kts | 68° |
| 2026-05-05 21:29 | 52.53058 | 11.46534 | 28868 ft | 517 kts | 68° |
| 2026-05-05 21:29 | 52.55968 | 11.57336 | 28850 ft | 517 kts | 68° |
| 2026-05-05 21:30 | 52.58871 | 11.68161 | 28865 ft | 518 kts | 68° |
| 2026-05-05 21:30 | 52.61770 | 11.79020 | 28864 ft | 518 kts | 68° |
| 2026-05-05 21:31 | 52.64659 | 11.89898 | 28862 ft | 519 kts | 68° |
| 2026-05-05 21:31 | 52.67540 | 12.00795 | 28865 ft | 519 kts | 68° |
| 2026-05-05 21:32 | 52.70414 | 12.11721 | 28867 ft | 519 kts | 68° |
| 2026-05-05 21:32 | 52.73278 | 12.22660 | 28860 ft | 520 kts | 68° |
| 2026-05-05 21:33 | 52.76135 | 12.33623 | 28857 ft | 520 kts | 68° |
| 2026-05-05 21:33 | 52.78983 | 12.44607 | 28857 ft | 520 kts | 68° |
| 2026-05-05 21:34 | 52.81824 | 12.55619 | 28859 ft | 521 kts | 68° |
| 2026-05-05 21:34 | 52.84656 | 12.66648 | 28854 ft | 521 kts | 68° |
| 2026-05-05 21:35 | 52.87481 | 12.77703 | 28860 ft | 522 kts | 68° |
| 2026-05-05 21:35 | 52.90296 | 12.88774 | 28856 ft | 522 kts | 69° |
| 2026-05-05 21:36 | 52.92628 | 12.97990 | 28859 ft | 522 kts | 69° |
| 2026-05-05 21:36 | 52.95431 | 13.09113 | 28860 ft | 523 kts | 69° |
| 2026-05-05 21:37 | 52.98224 | 13.20255 | 28856 ft | 523 kts | 69° |
| 2026-05-05 21:37 | 53.01011 | 13.31429 | 28862 ft | 524 kts | 69° |
| 2026-05-05 21:38 | 53.03788 | 13.42619 | 28863 ft | 524 kts | 69° |
| 2026-05-05 21:38 | 53.06558 | 13.53837 | 28863 ft | 525 kts | 69° |
| 2026-05-05 21:39 | 53.09323 | 13.65092 | 28864 ft | 525 kts | 69° |
| 2026-05-05 21:39 | 53.12076 | 13.76359 | 28862 ft | 526 kts | 69° |
| 2026-05-05 21:40 | 53.14823 | 13.87656 | 28864 ft | 526 kts | 69° |
| 2026-05-05 21:40 | 53.17560 | 13.98974 | 28860 ft | 527 kts | 69° |
| 2026-05-05 21:41 | 53.20290 | 14.10320 | 28864 ft | 527 kts | 69° |
| 2026-05-05 21:41 | 53.23011 | 14.21689 | 28866 ft | 527 kts | 69° |
| 2026-05-05 21:42 | 53.25723 | 14.33076 | 28867 ft | 528 kts | 69° |
| 2026-05-05 21:42 | 53.28435 | 14.44468 | 28868 ft | 528 kts | 69° |
| 2026-05-05 21:43 | 53.31267 | 14.55809 | 28874 ft | 528 kts | 68° |
| 2026-05-05 21:43 | 53.34131 | 14.67126 | 28874 ft | 529 kts | 68° |
| 2026-05-05 21:44 | 53.36974 | 14.78486 | 28875 ft | 529 kts | 68° |
| 2026-05-05 21:44 | 53.39789 | 14.89859 | 28880 ft | 529 kts | 68° |
| 2026-05-05 21:45 | 53.42588 | 15.01248 | 28881 ft | 529 kts | 68° |
| 2026-05-05 21:45 | 53.45380 | 15.12668 | 28882 ft | 529 kts | 68° |
| 2026-05-05 21:46 | 53.48166 | 15.24116 | 28881 ft | 529 kts | 68° |
| 2026-05-05 21:46 | 53.50942 | 15.35581 | 28879 ft | 530 kts | 68° |
| 2026-05-05 21:47 | 53.53704 | 15.47049 | 28881 ft | 530 kts | 68° |
| 2026-05-05 21:47 | 53.56460 | 15.58552 | 28877 ft | 530 kts | 68° |
| 2026-05-05 21:48 | 53.59209 | 15.70088 | 28880 ft | 531 kts | 68° |
| 2026-05-05 21:48 | 53.61948 | 15.81644 | 28884 ft | 531 kts | 68° |
| 2026-05-05 21:49 | 53.64677 | 15.93218 | 28882 ft | 532 kts | 69° |
| 2026-05-05 21:49 | 53.67398 | 16.04820 | 28883 ft | 532 kts | 69° |
| 2026-05-05 21:50 | 53.70107 | 16.16435 | 28885 ft | 532 kts | 69° |
| 2026-05-05 21:50 | 53.72804 | 16.28063 | 28885 ft | 532 kts | 69° |
| 2026-05-05 21:51 | 53.75493 | 16.39715 | 28888 ft | 532 kts | 69° |
| 2026-05-05 21:51 | 53.78167 | 16.51372 | 28890 ft | 532 kts | 69° |
| 2026-05-05 21:52 | 53.82159 | 16.68895 | 28889 ft | 532 kts | 69° |
| 2026-05-05 21:53 | 53.84806 | 16.80592 | 28895 ft | 532 kts | 69° |
| 2026-05-05 21:53 | 53.87443 | 16.92309 | 28892 ft | 532 kts | 69° |
| 2026-05-05 21:54 | 53.90069 | 17.04044 | 28899 ft | 532 kts | 69° |
| 2026-05-05 21:54 | 53.92685 | 17.15802 | 28897 ft | 532 kts | 69° |
| 2026-05-05 21:55 | 53.95286 | 17.27557 | 28903 ft | 533 kts | 69° |
| 2026-05-05 21:55 | 53.97879 | 17.39345 | 28901 ft | 533 kts | 69° |
| 2026-05-05 21:56 | 54.00463 | 17.51156 | 28904 ft | 533 kts | 69° |
| 2026-05-05 21:56 | 54.03034 | 17.62975 | 28907 ft | 533 kts | 69° |
| 2026-05-05 21:57 | 54.05593 | 17.74809 | 28911 ft | 533 kts | 69° |
| 2026-05-05 21:57 | 54.08143 | 17.86669 | 28904 ft | 533 kts | 70° |
| 2026-05-05 21:58 | 54.10681 | 17.98543 | 28915 ft | 533 kts | 70° |
| 2026-05-05 21:58 | 54.13208 | 18.10436 | 28912 ft | 534 kts | 70° |
| 2026-05-05 21:59 | 54.15726 | 18.22353 | 28914 ft | 534 kts | 70° |
| 2026-05-05 21:59 | 54.18233 | 18.34290 | 28917 ft | 534 kts | 70° |
| 2026-05-05 22:00 | 54.20729 | 18.46246 | 28909 ft | 535 kts | 70° |
| 2026-05-05 22:00 | 54.23216 | 18.58229 | 28914 ft | 535 kts | 70° |
| 2026-05-05 22:01 | 54.25688 | 18.70212 | 28918 ft | 535 kts | 70° |
| 2026-05-05 22:01 | 54.28153 | 18.82235 | 28912 ft | 535 kts | 70° |
| 2026-05-05 22:02 | 54.30608 | 18.94277 | 28918 ft | 536 kts | 70° |
| 2026-05-05 22:02 | 54.33052 | 19.06341 | 28924 ft | 536 kts | 70° |
| 2026-05-05 22:03 | 54.35483 | 19.18417 | 28919 ft | 536 kts | 71° |
| 2026-05-05 22:03 | 54.37907 | 19.30530 | 28917 ft | 536 kts | 71° |
| 2026-05-05 22:04 | 54.40314 | 19.42638 | 28921 ft | 536 kts | 71° |
| 2026-05-05 22:04 | 54.42714 | 19.54773 | 28918 ft | 536 kts | 71° |
| 2026-05-05 22:05 | 54.45334 | 19.66759 | 28907 ft | 536 kts | 64° |
| 2026-05-05 22:05 | 54.49048 | 19.77828 | 28931 ft | 534 kts | 56° |
| 2026-05-05 22:06 | 54.52941 | 19.88750 | 28924 ft | 535 kts | 57° |
| 2026-05-05 22:06 | 54.56766 | 19.99761 | 28927 ft | 536 kts | 57° |
| 2026-05-05 22:07 | 54.60570 | 20.10826 | 28917 ft | 537 kts | 57° |
| 2026-05-05 22:07 | 54.64367 | 20.21911 | 28926 ft | 537 kts | 57° |
| 2026-05-05 22:08 | 54.68170 | 20.33047 | 28919 ft | 538 kts | 57° |
| 2026-05-05 22:08 | 54.71967 | 20.44212 | 28921 ft | 539 kts | 57° |
| 2026-05-05 22:09 | 54.75758 | 20.55410 | 28917 ft | 539 kts | 57° |
| 2026-05-05 22:09 | 54.79516 | 20.66565 | 28904 ft | 540 kts | 57° |
| 2026-05-05 22:10 | 54.83294 | 20.77830 | 28907 ft | 541 kts | 57° |
| 2026-05-05 22:10 | 54.87089 | 20.89198 | 28912 ft | 541 kts | 58° |
| 2026-05-05 22:11 | 54.90856 | 21.00534 | 28911 ft | 542 kts | 58° |
| 2026-05-05 22:11 | 54.94585 | 21.11813 | 28920 ft | 542 kts | 58° |
| 2026-05-05 22:12 | 54.98331 | 21.23190 | 28922 ft | 542 kts | 58° |
| 2026-05-05 22:12 | 55.02066 | 21.34591 | 28935 ft | 542 kts | 58° |
| 2026-05-05 22:13 | 55.05792 | 21.46018 | 28927 ft | 542 kts | 58° |
| 2026-05-05 22:13 | 55.09511 | 21.57479 | 28921 ft | 542 kts | 58° |
| 2026-05-05 22:14 | 55.13213 | 21.68962 | 28923 ft | 543 kts | 59° |
| 2026-05-05 22:14 | 55.15805 | 21.79070 | 28922 ft | 545 kts | 69° |
| 2026-05-05 22:15 | 55.18735 | 21.93633 | 28921 ft | 546 kts | 69° |
| 2026-05-05 22:15 | 55.20881 | 22.04102 | 28921 ft | 546 kts | 69° |
| 2026-05-05 22:16 | 55.23472 | 22.16608 | 28923 ft | 546 kts | 69° |
| 2026-05-05 22:16 | 55.26059 | 22.29119 | 28923 ft | 546 kts | 69° |
| 2026-05-05 22:17 | 55.28631 | 22.41660 | 28925 ft | 546 kts | 69° |
| 2026-05-05 22:17 | 55.31186 | 22.54215 | 28925 ft | 546 kts | 69° |
| 2026-05-05 22:18 | 55.33729 | 22.66796 | 28922 ft | 546 kts | 69° |
| 2026-05-05 22:18 | 55.36260 | 22.79392 | 28920 ft | 546 kts | 69° |
| 2026-05-05 22:19 | 55.38777 | 22.92001 | 28921 ft | 546 kts | 70° |
| 2026-05-05 22:19 | 55.41276 | 23.04603 | 28916 ft | 546 kts | 70° |
| 2026-05-05 22:20 | 55.43765 | 23.17226 | 28916 ft | 545 kts | 70° |
| 2026-05-05 22:20 | 55.46222 | 23.29775 | 28911 ft | 545 kts | 70° |
| 2026-05-05 22:21 | 55.48697 | 23.42500 | 28906 ft | 545 kts | 70° |
| 2026-05-05 22:21 | 55.51140 | 23.55143 | 28908 ft | 545 kts | 70° |
| 2026-05-05 22:22 | 55.53572 | 23.67808 | 28910 ft | 545 kts | 70° |
| 2026-05-05 22:22 | 55.55990 | 23.80491 | 28911 ft | 545 kts | 71° |
| 2026-05-05 22:23 | 55.58394 | 23.93177 | 28902 ft | 545 kts | 71° |
| 2026-05-05 22:23 | 55.60785 | 24.05885 | 28900 ft | 545 kts | 71° |
| 2026-05-05 22:24 | 55.63163 | 24.18602 | 28900 ft | 545 kts | 71° |
| 2026-05-05 22:24 | 55.65531 | 24.31361 | 28890 ft | 545 kts | 71° |
| 2026-05-05 22:25 | 55.67884 | 24.44117 | 28895 ft | 545 kts | 71° |
| 2026-05-05 22:25 | 55.70223 | 24.56891 | 28889 ft | 545 kts | 71° |
| 2026-05-05 22:26 | 55.72551 | 24.69688 | 28895 ft | 545 kts | 72° |
| 2026-05-05 22:26 | 55.74861 | 24.82477 | 28887 ft | 545 kts | 72° |
| 2026-05-05 22:27 | 55.77163 | 24.95313 | 28887 ft | 545 kts | 72° |
| 2026-05-05 22:27 | 55.79434 | 25.08060 | 28888 ft | 544 kts | 72° |
| 2026-05-05 22:28 | 55.81705 | 25.20897 | 28893 ft | 544 kts | 72° |
| 2026-05-05 22:28 | 55.83962 | 25.33751 | 28888 ft | 544 kts | 72° |
| 2026-05-05 22:29 | 55.86206 | 25.46617 | 28889 ft | 544 kts | 72° |
| 2026-05-05 22:29 | 55.88437 | 25.59507 | 28890 ft | 544 kts | 72° |
| 2026-05-05 22:30 | 55.90654 | 25.72400 | 28885 ft | 544 kts | 72° |
| 2026-05-05 22:30 | 55.92858 | 25.85315 | 28889 ft | 544 kts | 73° |
| 2026-05-05 22:31 | 55.95047 | 25.98232 | 28876 ft | 544 kts | 73° |
| 2026-05-05 22:31 | 55.97295 | 26.11133 | 28878 ft | 544 kts | 71° |
| 2026-05-05 22:32 | 55.99811 | 26.23874 | 28879 ft | 544 kts | 70° |
| 2026-05-05 22:32 | 56.02352 | 26.36608 | 28881 ft | 544 kts | 70° |
| 2026-05-05 22:33 | 56.04829 | 26.49384 | 28877 ft | 543 kts | 70° |
| 2026-05-05 22:33 | 56.07266 | 26.62193 | 28877 ft | 543 kts | 71° |
| 2026-05-05 22:34 | 56.09686 | 26.75009 | 28875 ft | 543 kts | 71° |
| 2026-05-05 22:34 | 56.12094 | 26.87830 | 28875 ft | 543 kts | 71° |
| 2026-05-05 22:35 | 56.14489 | 27.00657 | 28874 ft | 542 kts | 71° |
| 2026-05-05 22:35 | 56.16870 | 27.13494 | 28870 ft | 542 kts | 71° |
| 2026-05-05 22:36 | 56.19237 | 27.26338 | 28868 ft | 542 kts | 72° |
| 2026-05-05 22:36 | 56.21589 | 27.39198 | 28867 ft | 542 kts | 72° |
| 2026-05-05 22:37 | 56.23928 | 27.52073 | 28868 ft | 542 kts | 72° |
| 2026-05-05 22:37 | 56.26252 | 27.64954 | 28861 ft | 542 kts | 72° |
| 2026-05-05 22:38 | 56.28563 | 27.77855 | 28863 ft | 541 kts | 72° |
| 2026-05-05 22:38 | 56.30860 | 27.90768 | 28856 ft | 542 kts | 72° |
| 2026-05-05 22:39 | 56.33146 | 28.03703 | 28851 ft | 542 kts | 72° |
| 2026-05-05 22:39 | 56.35056 | 28.16800 | 28827 ft | 540 kts | 84° |
| 2026-05-05 22:40 | 56.35175 | 28.30265 | 28847 ft | 536 kts | 99° |
| 2026-05-05 22:40 | 56.33898 | 28.43440 | 28827 ft | 534 kts | 103° |
| 2026-05-05 22:41 | 56.32635 | 28.56661 | 28822 ft | 536 kts | 103° |
| 2026-05-05 22:41 | 56.31421 | 28.69930 | 28825 ft | 538 kts | 102° |
| 2026-05-05 22:42 | 56.30188 | 28.83237 | 28823 ft | 538 kts | 103° |
| 2026-05-05 22:42 | 56.28940 | 28.96432 | 28818 ft | 537 kts | 103° |
| 2026-05-05 22:43 | 56.27673 | 29.09677 | 28817 ft | 537 kts | 103° |
| 2026-05-05 22:43 | 56.26412 | 29.22897 | 28816 ft | 536 kts | 103° |
| 2026-05-05 22:44 | 56.25146 | 29.36107 | 28817 ft | 535 kts | 103° |
| 2026-05-05 22:44 | 56.23868 | 29.49287 | 28822 ft | 535 kts | 103° |
| 2026-05-05 22:45 | 56.22575 | 29.62455 | 28829 ft | 534 kts | 103° |
| 2026-05-05 22:45 | 56.21269 | 29.75592 | 28825 ft | 534 kts | 103° |
| 2026-05-05 22:46 | 56.19949 | 29.88722 | 28863 ft | 534 kts | 104° |
| 2026-05-05 22:46 | 56.18618 | 30.01817 | 28832 ft | 532 kts | 104° |
| 2026-05-05 22:47 | 56.17281 | 30.14845 | 28825 ft | 530 kts | 104° |
| 2026-05-05 22:47 | 56.15934 | 30.27817 | 28829 ft | 528 kts | 104° |
| 2026-05-05 22:48 | 56.14574 | 30.40754 | 28832 ft | 527 kts | 104° |
| 2026-05-05 22:48 | 56.13206 | 30.53670 | 28828 ft | 528 kts | 104° |
| 2026-05-05 22:49 | 56.11809 | 30.66598 | 28841 ft | 528 kts | 104° |
| 2026-05-05 22:49 | 56.10386 | 30.79519 | 28833 ft | 529 kts | 104° |
| 2026-05-05 22:50 | 56.08955 | 30.92438 | 28833 ft | 529 kts | 104° |
| 2026-05-05 22:50 | 56.07515 | 31.05371 | 28831 ft | 530 kts | 104° |
| 2026-05-05 22:51 | 56.06098 | 31.18316 | 28832 ft | 530 kts | 104° |
| 2026-05-05 22:51 | 56.04680 | 31.31241 | 28832 ft | 529 kts | 104° |
| 2026-05-05 22:52 | 56.03240 | 31.44161 | 28831 ft | 529 kts | 104° |
| 2026-05-05 22:52 | 56.01789 | 31.57032 | 28830 ft | 529 kts | 104° |
| 2026-05-05 22:53 | 56.00569 | 31.67755 | 28827 ft | 528 kts | 105° |
| 2026-05-05 22:53 | 55.99096 | 31.80597 | 28832 ft | 528 kts | 105° |
| 2026-05-05 22:54 | 55.97612 | 31.93431 | 28834 ft | 527 kts | 105° |
| 2026-05-05 22:54 | 55.96104 | 32.06230 | 28832 ft | 527 kts | 105° |
| 2026-05-05 22:55 | 55.94582 | 32.19011 | 28832 ft | 526 kts | 105° |
| 2026-05-05 22:55 | 55.93049 | 32.31789 | 28836 ft | 526 kts | 105° |
| 2026-05-05 22:56 | 55.91507 | 32.44534 | 28832 ft | 526 kts | 105° |
| 2026-05-05 22:56 | 55.89951 | 32.57279 | 28835 ft | 526 kts | 105° |
| 2026-05-05 22:57 | 55.88382 | 32.70012 | 28834 ft | 526 kts | 105° |
| 2026-05-05 22:57 | 55.86801 | 32.82737 | 28837 ft | 526 kts | 105° |
| 2026-05-05 22:58 | 55.85639 | 32.95589 | 28837 ft | 528 kts | 96° |
| 2026-05-05 22:58 | 55.85777 | 33.08667 | 28847 ft | 529 kts | 86° |
| 2026-05-05 22:59 | 55.86270 | 33.21738 | 28840 ft | 529 kts | 88° |
| 2026-05-05 22:59 | 55.86667 | 33.34822 | 28840 ft | 529 kts | 88° |
| 2026-05-05 23:00 | 55.87214 | 33.54440 | 28837 ft | 528 kts | 88° |
| 2026-05-05 23:00 | 55.87569 | 33.67524 | 28846 ft | 528 kts | 88° |
| 2026-05-05 23:01 | 55.87911 | 33.80587 | 28835 ft | 528 kts | 88° |
| 2026-05-05 23:01 | 55.88239 | 33.93651 | 28844 ft | 528 kts | 88° |
| 2026-05-05 23:02 | 55.88554 | 34.06728 | 28855 ft | 528 kts | 88° |
| 2026-05-05 23:02 | 55.88855 | 34.19793 | 28841 ft | 528 kts | 88° |
| 2026-05-05 23:03 | 55.89142 | 34.32836 | 28841 ft | 527 kts | 89° |
| 2026-05-05 23:03 | 55.89408 | 34.45884 | 28841 ft | 526 kts | 89° |
| 2026-05-05 23:04 | 55.89651 | 34.58922 | 28841 ft | 526 kts | 89° |
| 2026-05-05 23:04 | 55.89881 | 34.71931 | 28844 ft | 525 kts | 89° |
| 2026-05-05 23:05 | 55.90100 | 34.84946 | 28844 ft | 525 kts | 89° |
| 2026-05-05 23:05 | 55.90306 | 34.97940 | 28843 ft | 524 kts | 89° |
| 2026-05-05 23:06 | 55.90500 | 35.10920 | 28842 ft | 524 kts | 89° |
| 2026-05-05 23:06 | 55.90689 | 35.23891 | 28841 ft | 523 kts | 89° |
| 2026-05-05 23:07 | 55.90866 | 35.36855 | 28840 ft | 523 kts | 89° |
| 2026-05-05 23:07 | 55.91029 | 35.49801 | 28835 ft | 523 kts | 89° |
| 2026-05-05 23:08 | 55.91179 | 35.62763 | 28832 ft | 523 kts | 89° |
| 2026-05-05 23:08 | 55.91315 | 35.75717 | 28834 ft | 523 kts | 89° |
| 2026-05-05 23:09 | 55.91525 | 35.88663 | 28826 ft | 523 kts | 86° |
| 2026-05-05 23:09 | 55.92120 | 36.01563 | 28837 ft | 522 kts | 85° |
| 2026-05-05 23:10 | 55.92718 | 36.14493 | 28834 ft | 523 kts | 85° |
| 2026-05-05 23:10 | 55.93280 | 36.27428 | 28833 ft | 523 kts | 86° |
| 2026-05-05 23:11 | 55.93817 | 36.40360 | 28831 ft | 523 kts | 86° |
| 2026-05-05 23:11 | 55.94341 | 36.53289 | 28826 ft | 522 kts | 86° |
| 2026-05-05 23:12 | 55.94851 | 36.66207 | 28827 ft | 522 kts | 86° |
| 2026-05-05 23:12 | 55.95348 | 36.79117 | 28825 ft | 522 kts | 86° |
| 2026-05-05 23:13 | 55.95833 | 36.92043 | 28824 ft | 521 kts | 86° |
| 2026-05-05 23:13 | 55.96303 | 37.04954 | 28831 ft | 521 kts | 86° |
| 2026-05-05 23:14 | 55.96760 | 37.17873 | 28827 ft | 521 kts | 86° |
| 2026-05-05 23:14 | 55.97204 | 37.30770 | 28827 ft | 521 kts | 86° |
| 2026-05-05 23:15 | 55.97600 | 37.43683 | 28830 ft | 520 kts | 87° |
| 2026-05-05 23:15 | 55.97963 | 37.56591 | 28825 ft | 520 kts | 87° |
| 2026-05-05 23:16 | 55.98324 | 37.69485 | 28823 ft | 520 kts | 87° |
| 2026-05-05 23:16 | 55.98677 | 37.82380 | 28822 ft | 520 kts | 87° |
| 2026-05-05 23:17 | 55.99044 | 37.95277 | 28823 ft | 520 kts | 87° |
| 2026-05-05 23:17 | 55.99403 | 38.08175 | 28825 ft | 520 kts | 87° |
| 2026-05-05 23:18 | 55.99746 | 38.21083 | 28820 ft | 520 kts | 87° |
| 2026-05-05 23:18 | 56.00072 | 38.33990 | 28819 ft | 520 kts | 87° |
| 2026-05-05 23:19 | 56.00384 | 38.46887 | 28825 ft | 520 kts | 87° |
| 2026-05-05 23:19 | 56.00684 | 38.59793 | 28824 ft | 520 kts | 88° |
| 2026-05-05 23:20 | 56.00970 | 38.72709 | 28825 ft | 520 kts | 88° |
| 2026-05-05 23:20 | 56.01243 | 38.85619 | 28828 ft | 520 kts | 88° |
| 2026-05-05 23:21 | 56.01502 | 38.98528 | 28829 ft | 520 kts | 88° |
| 2026-05-05 23:21 | 56.01747 | 39.11445 | 28823 ft | 520 kts | 88° |
| 2026-05-05 23:22 | 56.01979 | 39.24340 | 28833 ft | 519 kts | 88° |
| 2026-05-05 23:22 | 56.02197 | 39.37231 | 28828 ft | 519 kts | 88° |
| 2026-05-05 23:23 | 56.02402 | 39.50130 | 28826 ft | 518 kts | 88° |
| 2026-05-05 23:23 | 56.02596 | 39.63002 | 28826 ft | 518 kts | 88° |
| 2026-05-05 23:24 | 56.02834 | 39.75874 | 28835 ft | 518 kts | 88° |
| 2026-05-05 23:24 | 56.03063 | 39.88729 | 28828 ft | 518 kts | 88° |
| 2026-05-05 23:25 | 56.03232 | 40.01513 | 28837 ft | 517 kts | 89° |
| 2026-05-05 23:25 | 56.03390 | 40.14369 | 28841 ft | 517 kts | 89° |
| 2026-05-05 23:26 | 56.03543 | 40.27231 | 28843 ft | 517 kts | 89° |
| 2026-05-05 23:26 | 56.03684 | 40.40073 | 28838 ft | 516 kts | 89° |
| 2026-05-05 23:27 | 56.03812 | 40.52904 | 28839 ft | 516 kts | 89° |
| 2026-05-05 23:27 | 56.03927 | 40.65738 | 28835 ft | 516 kts | 89° |
| 2026-05-05 23:28 | 56.04028 | 40.78569 | 28840 ft | 515 kts | 89° |
| 2026-05-05 23:28 | 56.04108 | 40.91377 | 28843 ft | 515 kts | 89° |
| 2026-05-05 23:29 | 56.04174 | 41.04197 | 28842 ft | 515 kts | 89° |
| 2026-05-05 23:29 | 56.04229 | 41.16997 | 28834 ft | 514 kts | 90° |
| 2026-05-05 23:30 | 56.04265 | 41.27626 | 28842 ft | 514 kts | 90° |
| 2026-05-05 23:30 | 56.04301 | 41.42575 | 28838 ft | 514 kts | 90° |
| 2026-05-05 23:31 | 56.04316 | 41.55344 | 28840 ft | 514 kts | 90° |
| 2026-05-05 23:31 | 56.04319 | 41.65966 | 28835 ft | 514 kts | 90° |
| 2026-05-05 23:32 | 56.04311 | 41.78821 | 28845 ft | 513 kts | 90° |
| 2026-05-05 23:32 | 56.04289 | 41.91597 | 28836 ft | 514 kts | 90° |
| 2026-05-05 23:33 | 56.04255 | 42.04287 | 28838 ft | 514 kts | 90° |
| 2026-05-05 23:33 | 56.04207 | 42.17063 | 28845 ft | 514 kts | 90° |
| 2026-05-05 23:34 | 56.04146 | 42.29922 | 28836 ft | 514 kts | 90° |
| 2026-05-05 23:34 | 56.04072 | 42.42684 | 28836 ft | 511 kts | 91° |
| 2026-05-05 23:35 | 56.03752 | 42.49002 | 28823 ft | 510 kts | 102° |
| 2026-05-05 23:35 | 56.02778 | 42.55012 | 28848 ft | 509 kts | 113° |
| 2026-05-05 23:35 | 55.99286 | 42.65890 | 28850 ft | 503 kts | 129° |
| 2026-05-05 23:36 | 55.95160 | 42.76039 | 28843 ft | 507 kts | 127° |
| 2026-05-05 23:36 | 55.91121 | 42.86405 | 28844 ft | 510 kts | 126° |
| 2026-05-05 23:37 | 55.87064 | 42.96808 | 28847 ft | 512 kts | 127° |
| 2026-05-05 23:37 | 55.82977 | 43.07203 | 28845 ft | 512 kts | 127° |
| 2026-05-05 23:38 | 55.78921 | 43.17584 | 28848 ft | 511 kts | 124° |
| 2026-05-05 23:38 | 55.75362 | 43.28611 | 28854 ft | 510 kts | 120° |
| 2026-05-05 23:39 | 55.71937 | 43.39520 | 28858 ft | 509 kts | 121° |
| 2026-05-05 23:39 | 55.68435 | 43.50393 | 28860 ft | 508 kts | 121° |
| 2026-05-05 23:40 | 55.64909 | 43.61234 | 28859 ft | 507 kts | 121° |
| 2026-05-05 23:40 | 55.61439 | 43.72103 | 28853 ft | 506 kts | 117° |
| 2026-05-05 23:41 | 55.59351 | 43.84076 | 28870 ft | 509 kts | 100° |
| 2026-05-05 23:41 | 55.58962 | 43.96564 | 28871 ft | 510 kts | 91° |
| 2026-05-05 23:42 | 55.58790 | 44.09037 | 28863 ft | 512 kts | 92° |
| 2026-05-05 23:42 | 55.58521 | 44.21622 | 28868 ft | 513 kts | 92° |
| 2026-05-05 23:43 | 55.58229 | 44.34239 | 28864 ft | 514 kts | 92° |
| 2026-05-05 23:43 | 55.57933 | 44.46845 | 28862 ft | 513 kts | 92° |
| 2026-05-05 23:44 | 55.57627 | 44.59455 | 28862 ft | 513 kts | 93° |
| 2026-05-05 23:44 | 55.57311 | 44.72025 | 28866 ft | 512 kts | 93° |
| 2026-05-05 23:45 | 55.56439 | 44.84438 | 28860 ft | 504 kts | 111° |
| 2026-05-05 23:45 | 55.54879 | 44.89949 | 28895 ft | 501 kts | 126° |
| 2026-05-05 23:45 | 55.52682 | 44.94701 | 28865 ft | 499 kts | 138° |
| 2026-05-05 23:46 | 55.47510 | 45.02795 | 28860 ft | 501 kts | 140° |
| 2026-05-05 23:46 | 55.42335 | 45.11093 | 28859 ft | 502 kts | 139° |
| 2026-05-05 23:47 | 55.37210 | 45.19420 | 28866 ft | 501 kts | 139° |
| 2026-05-05 23:47 | 55.32096 | 45.27709 | 28883 ft | 500 kts | 139° |
| 2026-05-05 23:48 | 55.26979 | 45.35957 | 28879 ft | 499 kts | 139° |
| 2026-05-05 23:48 | 55.21884 | 45.44131 | 28874 ft | 499 kts | 139° |
| 2026-05-05 23:49 | 55.16721 | 45.52384 | 28859 ft | 500 kts | 139° |
| 2026-05-05 23:49 | 55.11613 | 45.60521 | 28884 ft | 500 kts | 139° |
| 2026-05-05 23:50 | 55.06464 | 45.68694 | 28881 ft | 501 kts | 139° |
| 2026-05-05 23:50 | 55.01303 | 45.76855 | 28883 ft | 501 kts | 140° |
| 2026-05-05 23:51 | 54.96104 | 45.85049 | 28880 ft | 501 kts | 140° |
| 2026-05-05 23:51 | 54.90932 | 45.93170 | 28880 ft | 501 kts | 140° |
| 2026-05-05 23:52 | 54.85760 | 46.01264 | 28885 ft | 500 kts | 140° |
| 2026-05-05 23:52 | 54.80584 | 46.09335 | 28885 ft | 500 kts | 140° |
| 2026-05-05 23:53 | 54.75257 | 46.17060 | 28881 ft | 499 kts | 143° |
| 2026-05-05 23:53 | 54.69816 | 46.24501 | 28885 ft | 499 kts | 143° |
| 2026-05-05 23:54 | 54.64378 | 46.31962 | 28897 ft | 499 kts | 143° |
| 2026-05-05 23:54 | 54.58941 | 46.39420 | 28894 ft | 499 kts | 143° |
| 2026-05-05 23:55 | 54.53500 | 46.46859 | 28897 ft | 499 kts | 143° |
| 2026-05-05 23:55 | 54.48051 | 46.54282 | 28897 ft | 499 kts | 144° |
| 2026-05-05 23:56 | 54.42607 | 46.61670 | 28903 ft | 499 kts | 144° |
| 2026-05-05 23:56 | 54.37156 | 46.69044 | 28899 ft | 498 kts | 144° |
| 2026-05-05 23:57 | 54.31707 | 46.76393 | 28912 ft | 497 kts | 144° |
| 2026-05-05 23:57 | 54.26464 | 46.84057 | 28901 ft | 498 kts | 133° |
| 2026-05-05 23:58 | 54.22678 | 46.93989 | 28914 ft | 502 kts | 115° |
| 2026-05-05 23:58 | 54.20225 | 47.05124 | 28921 ft | 502 kts | 112° |
| 2026-05-05 23:59 | 54.17702 | 47.16269 | 28917 ft | 504 kts | 113° |
| 2026-05-05 23:59 | 54.15105 | 47.27426 | 28915 ft | 506 kts | 113° |
| 2026-05-06 00:00 | 54.12493 | 47.38583 | 28914 ft | 507 kts | 113° |
| 2026-05-06 00:00 | 54.09874 | 47.49744 | 28918 ft | 507 kts | 113° |
| 2026-05-06 00:01 | 54.07253 | 47.60866 | 28913 ft | 506 kts | 113° |
| 2026-05-06 00:01 | 54.04629 | 47.71950 | 28917 ft | 504 kts | 113° |
| 2026-05-06 00:02 | 54.02003 | 47.82979 | 28925 ft | 502 kts | 113° |
| 2026-05-06 00:02 | 53.99371 | 47.93976 | 28920 ft | 501 kts | 113° |
| 2026-05-06 00:03 | 53.96735 | 48.04935 | 28920 ft | 500 kts | 113° |
| 2026-05-06 00:03 | 53.94095 | 48.15856 | 28922 ft | 500 kts | 113° |
| 2026-05-06 00:04 | 53.91445 | 48.26762 | 28920 ft | 500 kts | 113° |
| 2026-05-06 00:04 | 53.88786 | 48.37651 | 28927 ft | 500 kts | 114° |
| 2026-05-06 00:05 | 53.84782 | 48.53954 | 28927 ft | 500 kts | 114° |
| 2026-05-06 00:06 | 53.82097 | 48.64816 | 28923 ft | 500 kts | 114° |
| 2026-05-06 00:06 | 53.79404 | 48.75666 | 28930 ft | 499 kts | 114° |
| 2026-05-06 00:07 | 53.76712 | 48.86490 | 28928 ft | 499 kts | 112° |
| 2026-05-06 00:07 | 53.74478 | 48.97518 | 28925 ft | 499 kts | 108° |
| 2026-05-06 00:08 | 53.72424 | 49.08703 | 28923 ft | 498 kts | 108° |
| 2026-05-06 00:08 | 53.70328 | 49.19848 | 28930 ft | 498 kts | 108° |
| 2026-05-06 00:09 | 53.68537 | 49.29156 | 28930 ft | 497 kts | 108° |
| 2026-05-06 00:09 | 53.66380 | 49.40251 | 28925 ft | 497 kts | 108° |
| 2026-05-06 00:10 | 53.64217 | 49.51314 | 28931 ft | 497 kts | 108° |
| 2026-05-06 00:10 | 53.62049 | 49.62357 | 28934 ft | 496 kts | 109° |
| 2026-05-06 00:11 | 53.59870 | 49.73394 | 28933 ft | 496 kts | 109° |
| 2026-05-06 00:11 | 53.57683 | 49.84406 | 28934 ft | 496 kts | 109° |
| 2026-05-06 00:12 | 53.55489 | 49.95396 | 28940 ft | 495 kts | 109° |
| 2026-05-06 00:12 | 53.53285 | 50.06379 | 28942 ft | 495 kts | 109° |
| 2026-05-06 00:13 | 53.51068 | 50.17341 | 28940 ft | 495 kts | 109° |
| 2026-05-06 00:13 | 53.48452 | 50.27929 | 28931 ft | 494 kts | 114° |
| 2026-05-06 00:14 | 53.45583 | 50.38483 | 28935 ft | 494 kts | 114° |
| 2026-05-06 00:14 | 53.42755 | 50.48976 | 28945 ft | 494 kts | 114° |
| 2026-05-06 00:15 | 53.39953 | 50.59487 | 28945 ft | 494 kts | 114° |
| 2026-05-06 00:15 | 53.37173 | 50.69918 | 28938 ft | 493 kts | 114° |
| 2026-05-06 00:16 | 53.34363 | 50.80402 | 28943 ft | 493 kts | 114° |
| 2026-05-06 00:16 | 53.31545 | 50.90861 | 28944 ft | 493 kts | 114° |
| 2026-05-06 00:17 | 53.28718 | 51.01304 | 28954 ft | 493 kts | 114° |
| 2026-05-06 00:17 | 53.25881 | 51.11737 | 28947 ft | 493 kts | 114° |
| 2026-05-06 00:18 | 53.23038 | 51.22148 | 28949 ft | 492 kts | 114° |
| 2026-05-06 00:18 | 53.20191 | 51.32529 | 28954 ft | 492 kts | 114° |
| 2026-05-06 00:19 | 53.17330 | 51.42910 | 28948 ft | 492 kts | 114° |
| 2026-05-06 00:19 | 53.14458 | 51.53245 | 28952 ft | 491 kts | 114° |
| 2026-05-06 00:20 | 53.11579 | 51.63566 | 28955 ft | 491 kts | 115° |
| 2026-05-06 00:20 | 53.08694 | 51.73871 | 28951 ft | 491 kts | 115° |
| 2026-05-06 00:21 | 53.05805 | 51.84149 | 28955 ft | 490 kts | 115° |
| 2026-05-06 00:21 | 53.02910 | 51.94409 | 28956 ft | 490 kts | 115° |
| 2026-05-06 00:22 | 53.00006 | 52.04646 | 28961 ft | 490 kts | 115° |
| 2026-05-06 00:22 | 52.97084 | 52.14886 | 28964 ft | 490 kts | 115° |
| 2026-05-06 00:23 | 52.94153 | 52.25118 | 28964 ft | 491 kts | 115° |
| 2026-05-06 00:23 | 52.91215 | 52.35337 | 28959 ft | 491 kts | 115° |
| 2026-05-06 00:24 | 52.88269 | 52.45545 | 28960 ft | 491 kts | 115° |
| 2026-05-06 00:24 | 52.85310 | 52.55748 | 28965 ft | 491 kts | 115° |
| 2026-05-06 00:25 | 52.82345 | 52.65931 | 28969 ft | 492 kts | 115° |
| 2026-05-06 00:25 | 52.79372 | 52.76099 | 28968 ft | 492 kts | 115° |
| 2026-05-06 00:26 | 52.76385 | 52.86276 | 28974 ft | 492 kts | 115° |
| 2026-05-06 00:26 | 52.73388 | 52.96430 | 28974 ft | 492 kts | 115° |
| 2026-05-06 00:27 | 52.70384 | 53.06565 | 28970 ft | 492 kts | 115° |
| 2026-05-06 00:27 | 52.67371 | 53.16702 | 28969 ft | 492 kts | 116° |
| 2026-05-06 00:28 | 52.64352 | 53.26807 | 28975 ft | 492 kts | 116° |
| 2026-05-06 00:28 | 52.61321 | 53.36900 | 28969 ft | 492 kts | 116° |
| 2026-05-06 00:29 | 52.58285 | 53.46979 | 28973 ft | 492 kts | 116° |
| 2026-05-06 00:29 | 52.55242 | 53.57043 | 28973 ft | 492 kts | 116° |
| 2026-05-06 00:30 | 52.52189 | 53.67097 | 28972 ft | 492 kts | 116° |
| 2026-05-06 00:30 | 52.49128 | 53.77134 | 28975 ft | 492 kts | 116° |
| 2026-05-06 00:31 | 52.46060 | 53.87155 | 28972 ft | 492 kts | 116° |
| 2026-05-06 00:31 | 52.42978 | 53.97177 | 28977 ft | 492 kts | 116° |
| 2026-05-06 00:32 | 52.39893 | 54.07172 | 28974 ft | 492 kts | 116° |
| 2026-05-06 00:32 | 52.36799 | 54.17160 | 28975 ft | 492 kts | 116° |
| 2026-05-06 00:33 | 52.33719 | 54.27155 | 28975 ft | 492 kts | 114° |
| 2026-05-06 00:33 | 52.31588 | 54.37748 | 28974 ft | 491 kts | 102° |
| 2026-05-06 00:34 | 52.30688 | 54.48780 | 28983 ft | 490 kts | 95° |
| 2026-05-06 00:34 | 52.29987 | 54.59869 | 28975 ft | 491 kts | 96° |
| 2026-05-06 00:35 | 52.29221 | 54.70966 | 28978 ft | 492 kts | 96° |
| 2026-05-06 00:35 | 52.28436 | 54.82058 | 28973 ft | 492 kts | 96° |
| 2026-05-06 00:36 | 52.27644 | 54.93174 | 28973 ft | 493 kts | 96° |
| 2026-05-06 00:36 | 52.26843 | 55.04284 | 28979 ft | 493 kts | 96° |
| 2026-05-06 00:37 | 52.26031 | 55.15411 | 28978 ft | 493 kts | 96° |
| 2026-05-06 00:37 | 52.25207 | 55.26538 | 28980 ft | 494 kts | 96° |
| 2026-05-06 00:38 | 52.24374 | 55.37659 | 28980 ft | 494 kts | 97° |
| 2026-05-06 00:38 | 52.23530 | 55.48802 | 28978 ft | 494 kts | 97° |
| 2026-05-06 00:39 | 52.22672 | 55.59934 | 28979 ft | 495 kts | 97° |
| 2026-05-06 00:39 | 52.21796 | 55.71078 | 28980 ft | 496 kts | 97° |
| 2026-05-06 00:40 | 52.20909 | 55.82226 | 28977 ft | 496 kts | 97° |
| 2026-05-06 00:40 | 52.20012 | 55.93395 | 28975 ft | 497 kts | 97° |
| 2026-05-06 00:41 | 52.19104 | 56.04571 | 28975 ft | 497 kts | 97° |
| 2026-05-06 00:41 | 52.18186 | 56.15753 | 28974 ft | 498 kts | 97° |
| 2026-05-06 00:42 | 52.17255 | 56.26936 | 28984 ft | 499 kts | 97° |
| 2026-05-06 00:42 | 52.16312 | 56.38137 | 28983 ft | 499 kts | 98° |
| 2026-05-06 00:43 | 52.15359 | 56.49346 | 28987 ft | 500 kts | 98° |
| 2026-05-06 00:43 | 52.14394 | 56.60572 | 28985 ft | 501 kts | 98° |
| 2026-05-06 00:44 | 52.13417 | 56.71811 | 28993 ft | 502 kts | 98° |
| 2026-05-06 00:44 | 52.12426 | 56.83086 | 28993 ft | 504 kts | 98° |
| 2026-05-06 00:45 | 52.11421 | 56.94387 | 28995 ft | 505 kts | 98° |
| 2026-05-06 00:45 | 52.10574 | 57.03813 | 28996 ft | 507 kts | 99° |
| 2026-05-06 00:46 | 52.09544 | 57.15164 | 29000 ft | 508 kts | 99° |
| 2026-05-06 00:46 | 52.08500 | 57.26535 | 29004 ft | 509 kts | 99° |
| 2026-05-06 00:47 | 52.07443 | 57.37934 | 29007 ft | 510 kts | 99° |
| 2026-05-06 00:47 | 52.06373 | 57.49347 | 29007 ft | 512 kts | 100° |
| 2026-05-06 00:48 | 52.05288 | 57.60790 | 29003 ft | 513 kts | 100° |
| 2026-05-06 00:48 | 52.04190 | 57.72253 | 29007 ft | 514 kts | 100° |
| 2026-05-06 00:49 | 52.03078 | 57.83741 | 29007 ft | 515 kts | 101° |
| 2026-05-06 00:49 | 52.01955 | 57.95239 | 29011 ft | 516 kts | 101° |
| 2026-05-06 00:50 | 52.00826 | 58.06761 | 29006 ft | 518 kts | 100° |
| 2026-05-06 00:50 | 51.99921 | 58.18377 | 29009 ft | 520 kts | 98° |
| 2026-05-06 00:51 | 51.99108 | 58.30048 | 29006 ft | 521 kts | 98° |
| 2026-05-06 00:51 | 51.98252 | 58.41736 | 29008 ft | 522 kts | 99° |
| 2026-05-06 00:52 | 51.97350 | 58.53445 | 29007 ft | 524 kts | 99° |
| 2026-05-06 00:52 | 51.96426 | 58.65174 | 29014 ft | 525 kts | 99° |
| 2026-05-06 00:53 | 51.95490 | 58.76925 | 29005 ft | 525 kts | 99° |
| 2026-05-06 00:53 | 51.94543 | 58.88681 | 29012 ft | 526 kts | 99° |
| 2026-05-06 00:54 | 51.93586 | 59.00436 | 29014 ft | 526 kts | 100° |
| 2026-05-06 00:54 | 51.92614 | 59.12200 | 29008 ft | 527 kts | 100° |
| 2026-05-06 00:55 | 51.91631 | 59.23971 | 29023 ft | 527 kts | 100° |
| 2026-05-06 00:55 | 51.90636 | 59.35730 | 29009 ft | 528 kts | 100° |
| 2026-05-06 00:56 | 51.89627 | 59.47510 | 29014 ft | 528 kts | 101° |
| 2026-05-06 00:56 | 51.88606 | 59.59287 | 29028 ft | 529 kts | 101° |
| 2026-05-06 00:57 | 51.87572 | 59.71076 | 29021 ft | 529 kts | 101° |
| 2026-05-06 00:57 | 51.86526 | 59.82868 | 29022 ft | 530 kts | 101° |
| 2026-05-06 00:58 | 51.85466 | 59.94669 | 29023 ft | 530 kts | 101° |
| 2026-05-06 00:58 | 51.84393 | 60.06479 | 29024 ft | 531 kts | 102° |
| 2026-05-06 00:59 | 51.83307 | 60.18301 | 29025 ft | 532 kts | 102° |
| 2026-05-06 00:59 | 51.82210 | 60.30132 | 29030 ft | 533 kts | 102° |
| 2026-05-06 01:00 | 51.81008 | 60.41951 | 29025 ft | 532 kts | 105° |
| 2026-05-06 01:00 | 51.79473 | 60.53660 | 29025 ft | 533 kts | 106° |
| 2026-05-06 01:01 | 51.77898 | 60.65380 | 29029 ft | 535 kts | 107° |
| 2026-05-06 01:01 | 51.76326 | 60.77149 | 29030 ft | 537 kts | 107° |
| 2026-05-06 01:02 | 51.74752 | 60.88955 | 29039 ft | 538 kts | 107° |
| 2026-05-06 01:02 | 51.73166 | 61.00773 | 29026 ft | 540 kts | 107° |
| 2026-05-06 01:03 | 51.71639 | 61.12061 | 29028 ft | 541 kts | 107° |
| 2026-05-06 01:03 | 51.70023 | 61.23906 | 29024 ft | 541 kts | 107° |
| 2026-05-06 01:04 | 51.68393 | 61.35753 | 29030 ft | 541 kts | 107° |
| 2026-05-06 01:04 | 51.66749 | 61.47601 | 29024 ft | 542 kts | 107° |
| 2026-05-06 01:05 | 51.65094 | 61.59435 | 29026 ft | 542 kts | 107° |
| 2026-05-06 01:05 | 51.63424 | 61.71285 | 29027 ft | 543 kts | 107° |
| 2026-05-06 01:06 | 51.61738 | 61.83149 | 29029 ft | 543 kts | 107° |
| 2026-05-06 01:06 | 51.60043 | 61.94991 | 29026 ft | 543 kts | 108° |
| 2026-05-06 01:07 | 51.58335 | 62.06835 | 29027 ft | 543 kts | 108° |
| 2026-05-06 01:07 | 51.56617 | 62.18646 | 29031 ft | 543 kts | 108° |
| 2026-05-06 01:08 | 51.54886 | 62.30466 | 29035 ft | 543 kts | 108° |
| 2026-05-06 01:08 | 51.53144 | 62.42261 | 29037 ft | 543 kts | 108° |
| 2026-05-06 01:09 | 51.51390 | 62.54054 | 29034 ft | 543 kts | 108° |
| 2026-05-06 01:09 | 51.49624 | 62.65841 | 29036 ft | 542 kts | 108° |
| 2026-05-06 01:10 | 51.47848 | 62.77597 | 29034 ft | 542 kts | 108° |
| 2026-05-06 01:10 | 51.46062 | 62.89346 | 29039 ft | 542 kts | 108° |
| 2026-05-06 01:11 | 51.44265 | 63.01069 | 29039 ft | 542 kts | 108° |
| 2026-05-06 01:11 | 51.42454 | 63.12805 | 29037 ft | 542 kts | 108° |
| 2026-05-06 01:12 | 51.40631 | 63.24529 | 29046 ft | 543 kts | 108° |
| 2026-05-06 01:12 | 51.38796 | 63.36250 | 29027 ft | 543 kts | 108° |
| 2026-05-06 01:13 | 51.36948 | 63.47968 | 29044 ft | 542 kts | 108° |
| 2026-05-06 01:13 | 51.35092 | 63.59656 | 29050 ft | 542 kts | 108° |
| 2026-05-06 01:14 | 51.32284 | 63.77174 | 29058 ft | 542 kts | 108° |
| 2026-05-06 01:14 | 51.30399 | 63.88842 | 29050 ft | 542 kts | 108° |
| 2026-05-06 01:15 | 51.28504 | 64.00485 | 29050 ft | 542 kts | 108° |
| 2026-05-06 01:15 | 51.26594 | 64.12134 | 29054 ft | 542 kts | 108° |
| 2026-05-06 01:16 | 51.24673 | 64.23775 | 29056 ft | 542 kts | 108° |
| 2026-05-06 01:16 | 51.22751 | 64.35346 | 29055 ft | 543 kts | 108° |
| 2026-05-06 01:17 | 51.20789 | 64.47074 | 29054 ft | 544 kts | 108° |
| 2026-05-06 01:17 | 51.18823 | 64.58740 | 29063 ft | 545 kts | 108° |
| 2026-05-06 01:18 | 51.16846 | 64.70404 | 29053 ft | 546 kts | 108° |
| 2026-05-06 01:18 | 51.14850 | 64.82095 | 29058 ft | 546 kts | 108° |
| 2026-05-06 01:19 | 51.12855 | 64.93706 | 29056 ft | 547 kts | 108° |
| 2026-05-06 01:19 | 51.10836 | 65.05376 | 29066 ft | 547 kts | 108° |
| 2026-05-06 01:20 | 51.08804 | 65.17047 | 29052 ft | 547 kts | 108° |
| 2026-05-06 01:20 | 51.06763 | 65.28692 | 29073 ft | 547 kts | 108° |
| 2026-05-06 01:21 | 51.04710 | 65.40330 | 29066 ft | 546 kts | 108° |
| 2026-05-06 01:21 | 51.02646 | 65.51953 | 29049 ft | 546 kts | 108° |
| 2026-05-06 01:22 | 51.00572 | 65.63554 | 29070 ft | 546 kts | 108° |
| 2026-05-06 01:22 | 50.98486 | 65.75154 | 29064 ft | 546 kts | 108° |
| 2026-05-06 01:23 | 50.96388 | 65.86741 | 29067 ft | 546 kts | 108° |
| 2026-05-06 01:23 | 50.94282 | 65.98301 | 29066 ft | 546 kts | 108° |
| 2026-05-06 01:24 | 50.92166 | 66.09840 | 29061 ft | 545 kts | 108° |
| 2026-05-06 01:24 | 50.90038 | 66.21375 | 29063 ft | 545 kts | 108° |
| 2026-05-06 01:25 | 50.87901 | 66.32886 | 29067 ft | 545 kts | 108° |
| 2026-05-06 01:25 | 50.85753 | 66.44385 | 29064 ft | 544 kts | 108° |
| 2026-05-06 01:26 | 50.83597 | 66.55858 | 29063 ft | 544 kts | 108° |
| 2026-05-06 01:26 | 50.81432 | 66.67306 | 29062 ft | 543 kts | 108° |
| 2026-05-06 01:27 | 50.79255 | 66.78745 | 29063 ft | 543 kts | 108° |
| 2026-05-06 01:27 | 50.77072 | 66.90153 | 29072 ft | 542 kts | 109° |
| 2026-05-06 01:28 | 50.74877 | 67.01549 | 29065 ft | 542 kts | 109° |
| 2026-05-06 01:28 | 50.72670 | 67.12940 | 29069 ft | 542 kts | 109° |
| 2026-05-06 01:29 | 50.70456 | 67.24304 | 29072 ft | 542 kts | 109° |
| 2026-05-06 01:29 | 50.68228 | 67.35669 | 29074 ft | 542 kts | 109° |
| 2026-05-06 01:30 | 50.65990 | 67.47017 | 29072 ft | 542 kts | 109° |
| 2026-05-06 01:30 | 50.63740 | 67.58364 | 29073 ft | 542 kts | 109° |
| 2026-05-06 01:31 | 50.61479 | 67.69695 | 29074 ft | 542 kts | 109° |
| 2026-05-06 01:31 | 50.59206 | 67.81019 | 29072 ft | 542 kts | 109° |
| 2026-05-06 01:32 | 50.56923 | 67.92336 | 29072 ft | 542 kts | 109° |
| 2026-05-06 01:32 | 50.54632 | 68.03632 | 29069 ft | 542 kts | 109° |
| 2026-05-06 01:33 | 50.51945 | 68.14655 | 29069 ft | 539 kts | 118° |
| 2026-05-06 01:33 | 50.48765 | 68.23104 | 29076 ft | 535 kts | 126° |
| 2026-05-06 01:34 | 50.44677 | 68.32868 | 29074 ft | 535 kts | 125° |
| 2026-05-06 01:34 | 50.40663 | 68.42704 | 29076 ft | 535 kts | 125° |
| 2026-05-06 01:35 | 50.36666 | 68.52538 | 29077 ft | 535 kts | 125° |
| 2026-05-06 01:35 | 50.32658 | 68.62350 | 29071 ft | 535 kts | 125° |
| 2026-05-06 01:36 | 50.28638 | 68.72134 | 29087 ft | 534 kts | 125° |
| 2026-05-06 01:36 | 50.24613 | 68.81883 | 29081 ft | 533 kts | 125° |
| 2026-05-06 01:37 | 50.20583 | 68.91613 | 29078 ft | 533 kts | 125° |
| 2026-05-06 01:37 | 50.16555 | 69.01302 | 29078 ft | 532 kts | 125° |
| 2026-05-06 01:38 | 50.12518 | 69.10977 | 29069 ft | 531 kts | 125° |
| 2026-05-06 01:38 | 50.08485 | 69.20609 | 29073 ft | 531 kts | 125° |
| 2026-05-06 01:39 | 50.04447 | 69.30215 | 29071 ft | 530 kts | 125° |
| 2026-05-06 01:39 | 50.00398 | 69.39814 | 29067 ft | 530 kts | 125° |
| 2026-05-06 01:40 | 49.96349 | 69.49378 | 29066 ft | 530 kts | 125° |
| 2026-05-06 01:40 | 49.92296 | 69.58916 | 29068 ft | 529 kts | 125° |
| 2026-05-06 01:41 | 49.88238 | 69.68432 | 29067 ft | 528 kts | 125° |
| 2026-05-06 01:41 | 49.84177 | 69.77920 | 29065 ft | 527 kts | 125° |
| 2026-05-06 01:42 | 49.80119 | 69.87369 | 29065 ft | 526 kts | 125° |
| 2026-05-06 01:42 | 49.76065 | 69.96773 | 29068 ft | 525 kts | 126° |
| 2026-05-06 01:43 | 49.72008 | 70.06152 | 29067 ft | 524 kts | 126° |
| 2026-05-06 01:43 | 49.67948 | 70.15504 | 29070 ft | 523 kts | 126° |
| 2026-05-06 01:44 | 49.63890 | 70.24820 | 29075 ft | 523 kts | 126° |
| 2026-05-06 01:44 | 49.59823 | 70.34121 | 29069 ft | 522 kts | 126° |
| 2026-05-06 01:45 | 49.55757 | 70.43390 | 29075 ft | 522 kts | 126° |
| 2026-05-06 01:45 | 49.51689 | 70.52629 | 29080 ft | 521 kts | 126° |
| 2026-05-06 01:46 | 49.47616 | 70.61850 | 29077 ft | 521 kts | 126° |
| 2026-05-06 01:46 | 49.43542 | 70.71040 | 29079 ft | 520 kts | 126° |
| 2026-05-06 01:47 | 49.39469 | 70.80196 | 29079 ft | 519 kts | 126° |
| 2026-05-06 01:47 | 49.35400 | 70.89313 | 29081 ft | 517 kts | 126° |
| 2026-05-06 01:48 | 49.31328 | 70.98405 | 29083 ft | 516 kts | 126° |
| 2026-05-06 01:48 | 49.27259 | 71.07460 | 29088 ft | 515 kts | 126° |
| 2026-05-06 01:49 | 49.23193 | 71.16476 | 29091 ft | 514 kts | 126° |
| 2026-05-06 01:49 | 49.18935 | 71.25887 | 29095 ft | 513 kts | 126° |
| 2026-05-06 01:50 | 49.14864 | 71.34853 | 29091 ft | 513 kts | 126° |
| 2026-05-06 01:50 | 49.10796 | 71.43783 | 29101 ft | 512 kts | 127° |
| 2026-05-06 01:51 | 49.06727 | 71.52686 | 29100 ft | 511 kts | 127° |
| 2026-05-06 01:51 | 49.02656 | 71.61563 | 29102 ft | 511 kts | 127° |
| 2026-05-06 01:52 | 48.98579 | 71.70423 | 29107 ft | 510 kts | 127° |
| 2026-05-06 01:52 | 48.94497 | 71.79265 | 29108 ft | 510 kts | 127° |
| 2026-05-06 01:53 | 48.90410 | 71.88090 | 29111 ft | 510 kts | 127° |
| 2026-05-06 01:53 | 48.86319 | 71.96894 | 29115 ft | 510 kts | 127° |
| 2026-05-06 01:54 | 48.82225 | 72.05677 | 29119 ft | 509 kts | 127° |
| 2026-05-06 01:54 | 48.78127 | 72.14438 | 29121 ft | 509 kts | 127° |
| 2026-05-06 01:55 | 48.73995 | 72.23243 | 29120 ft | 508 kts | 127° |
| 2026-05-06 01:55 | 48.69896 | 72.31952 | 29121 ft | 508 kts | 127° |
| 2026-05-06 01:56 | 48.65788 | 72.40650 | 29127 ft | 507 kts | 127° |
| 2026-05-06 01:56 | 48.61684 | 72.49311 | 29131 ft | 507 kts | 127° |
| 2026-05-06 01:57 | 48.57573 | 72.57960 | 29135 ft | 506 kts | 127° |
| 2026-05-06 01:57 | 48.53463 | 72.66579 | 29140 ft | 506 kts | 128° |
| 2026-05-06 01:58 | 48.49349 | 72.75180 | 29136 ft | 505 kts | 128° |
| 2026-05-06 01:58 | 48.45933 | 72.82301 | 29141 ft | 504 kts | 128° |
| 2026-05-06 01:59 | 48.41819 | 72.90852 | 29144 ft | 504 kts | 128° |
| 2026-05-06 01:59 | 48.37702 | 72.99382 | 29146 ft | 503 kts | 128° |
| 2026-05-06 02:00 | 48.33582 | 73.07889 | 29144 ft | 503 kts | 128° |
| 2026-05-06 02:00 | 48.29460 | 73.16378 | 29148 ft | 503 kts | 128° |
| 2026-05-06 02:01 | 48.25331 | 73.24853 | 29148 ft | 502 kts | 128° |
| 2026-05-06 02:01 | 48.21201 | 73.33304 | 29157 ft | 502 kts | 128° |
| 2026-05-06 02:02 | 48.17064 | 73.41743 | 29154 ft | 502 kts | 128° |
| 2026-05-06 02:02 | 48.12922 | 73.50171 | 29140 ft | 502 kts | 128° |
| 2026-05-06 02:03 | 48.08719 | 73.58496 | 29145 ft | 500 kts | 132° |
| 2026-05-06 02:03 | 48.04234 | 73.66419 | 29162 ft | 499 kts | 133° |
| 2026-05-06 02:04 | 47.99735 | 73.74335 | 29163 ft | 499 kts | 133° |
| 2026-05-06 02:04 | 47.95245 | 73.82252 | 29158 ft | 500 kts | 132° |
| 2026-05-06 02:05 | 47.90756 | 73.90167 | 29162 ft | 500 kts | 132° |
| 2026-05-06 02:05 | 47.86258 | 73.98076 | 29158 ft | 500 kts | 132° |
| 2026-05-06 02:06 | 47.81764 | 74.05954 | 29158 ft | 499 kts | 132° |
| 2026-05-06 02:06 | 47.77261 | 74.13824 | 29160 ft | 499 kts | 132° |
| 2026-05-06 02:07 | 47.72756 | 74.21674 | 29156 ft | 499 kts | 132° |
| 2026-05-06 02:07 | 47.68249 | 74.29502 | 29158 ft | 499 kts | 132° |
| 2026-05-06 02:08 | 47.63733 | 74.37326 | 29156 ft | 499 kts | 132° |
| 2026-05-06 02:08 | 47.59215 | 74.45129 | 29156 ft | 498 kts | 133° |
| 2026-05-06 02:09 | 47.54690 | 74.52921 | 29151 ft | 498 kts | 133° |
| 2026-05-06 02:09 | 47.50172 | 74.60680 | 29155 ft | 498 kts | 133° |
| 2026-05-06 02:10 | 47.45646 | 74.68431 | 29153 ft | 498 kts | 133° |
| 2026-05-06 02:10 | 47.41119 | 74.76161 | 29147 ft | 497 kts | 133° |
| 2026-05-06 02:11 | 47.36588 | 74.83874 | 29147 ft | 497 kts | 133° |
| 2026-05-06 02:11 | 47.32060 | 74.91561 | 29146 ft | 496 kts | 133° |
| 2026-05-06 02:12 | 47.27531 | 74.99229 | 29149 ft | 496 kts | 133° |
| 2026-05-06 02:12 | 47.22995 | 75.06886 | 29148 ft | 496 kts | 133° |
| 2026-05-06 02:13 | 47.18462 | 75.14514 | 29143 ft | 495 kts | 133° |
| 2026-05-06 02:13 | 47.13925 | 75.22130 | 29146 ft | 495 kts | 133° |
| 2026-05-06 02:14 | 47.09384 | 75.29732 | 29140 ft | 495 kts | 133° |
| 2026-05-06 02:14 | 47.04834 | 75.37325 | 29139 ft | 495 kts | 133° |
| 2026-05-06 02:15 | 47.00286 | 75.44895 | 29142 ft | 495 kts | 133° |
| 2026-05-06 02:15 | 46.95724 | 75.52468 | 29149 ft | 495 kts | 133° |
| 2026-05-06 02:16 | 46.91159 | 75.60024 | 29141 ft | 495 kts | 133° |
| 2026-05-06 02:16 | 46.86591 | 75.67563 | 29143 ft | 495 kts | 133° |
| 2026-05-06 02:17 | 46.82015 | 75.75095 | 29143 ft | 495 kts | 133° |
| 2026-05-06 02:17 | 46.77437 | 75.82609 | 29140 ft | 495 kts | 133° |
| 2026-05-06 02:18 | 46.72857 | 75.90107 | 29136 ft | 495 kts | 133° |
| 2026-05-06 02:18 | 46.68270 | 75.97593 | 29140 ft | 495 kts | 133° |
| 2026-05-06 02:19 | 46.63686 | 76.05055 | 29139 ft | 494 kts | 133° |
| 2026-05-06 02:19 | 46.59099 | 76.12503 | 29140 ft | 494 kts | 133° |
| 2026-05-06 02:20 | 46.52220 | 76.23633 | 29142 ft | 493 kts | 133° |
| 2026-05-06 02:21 | 46.47626 | 76.31040 | 29137 ft | 493 kts | 133° |
| 2026-05-06 02:21 | 46.43036 | 76.38421 | 29137 ft | 493 kts | 133° |
| 2026-05-06 02:22 | 46.38472 | 76.45743 | 29137 ft | 492 kts | 133° |
| 2026-05-06 02:22 | 46.33851 | 76.53136 | 29134 ft | 492 kts | 134° |
| 2026-05-06 02:23 | 46.29282 | 76.60410 | 29133 ft | 491 kts | 134° |
| 2026-05-06 02:23 | 46.24685 | 76.67709 | 29136 ft | 491 kts | 134° |
| 2026-05-06 02:24 | 46.20088 | 76.74992 | 29137 ft | 490 kts | 134° |
| 2026-05-06 02:24 | 46.15461 | 76.82306 | 29136 ft | 490 kts | 134° |
| 2026-05-06 02:25 | 46.10863 | 76.89554 | 29134 ft | 490 kts | 134° |
| 2026-05-06 02:25 | 46.06291 | 76.96741 | 29134 ft | 489 kts | 134° |
| 2026-05-06 02:26 | 46.01658 | 77.04005 | 29130 ft | 489 kts | 134° |
| 2026-05-06 02:26 | 45.97055 | 77.11203 | 29133 ft | 489 kts | 134° |
| 2026-05-06 02:27 | 45.92449 | 77.18387 | 29133 ft | 488 kts | 134° |
| 2026-05-06 02:27 | 45.87843 | 77.25553 | 29130 ft | 488 kts | 134° |
| 2026-05-06 02:28 | 45.83235 | 77.32701 | 29146 ft | 488 kts | 134° |
| 2026-05-06 02:28 | 45.78623 | 77.39838 | 29140 ft | 488 kts | 134° |
| 2026-05-06 02:29 | 45.74007 | 77.46961 | 29138 ft | 488 kts | 134° |
| 2026-05-06 02:29 | 45.69378 | 77.54089 | 29126 ft | 489 kts | 134° |
| 2026-05-06 02:30 | 45.64742 | 77.61206 | 29124 ft | 489 kts | 134° |
| 2026-05-06 02:30 | 45.60094 | 77.68323 | 29134 ft | 490 kts | 134° |
| 2026-05-06 02:31 | 45.55438 | 77.75434 | 29134 ft | 490 kts | 134° |
| 2026-05-06 02:31 | 45.50770 | 77.82546 | 29133 ft | 491 kts | 134° |
| 2026-05-06 02:32 | 45.46093 | 77.89653 | 29131 ft | 492 kts | 134° |
| 2026-05-06 02:32 | 45.41412 | 77.96747 | 29134 ft | 492 kts | 134° |
| 2026-05-06 02:33 | 45.36719 | 78.03841 | 29120 ft | 492 kts | 134° |
| 2026-05-06 02:33 | 45.35167 | 78.06184 | 29127 ft | 492 kts | 134° |
| 2026-05-06 02:34 | 45.27325 | 78.17987 | 29130 ft | 492 kts | 134° |
| 2026-05-06 02:34 | 45.22613 | 78.25055 | 29125 ft | 492 kts | 134° |
| 2026-05-06 02:35 | 45.17904 | 78.32102 | 29132 ft | 493 kts | 134° |
| 2026-05-06 02:35 | 45.13186 | 78.39146 | 29129 ft | 492 kts | 134° |
| 2026-05-06 02:36 | 45.09272 | 78.45002 | 29131 ft | 493 kts | 133° |
| 2026-05-06 02:36 | 45.04753 | 78.52288 | 29129 ft | 493 kts | 131° |
| 2026-05-06 02:37 | 45.00276 | 78.59637 | 29135 ft | 493 kts | 131° |
| 2026-05-06 02:37 | 44.95756 | 78.66940 | 29134 ft | 493 kts | 132° |
| 2026-05-06 02:38 | 44.91219 | 78.74211 | 29146 ft | 494 kts | 132° |
| 2026-05-06 02:38 | 44.86674 | 78.81482 | 29161 ft | 494 kts | 132° |
| 2026-05-06 02:39 | 44.82027 | 78.88623 | 29171 ft | 494 kts | 134° |
| 2026-05-06 02:39 | 44.77194 | 78.95474 | 29182 ft | 494 kts | 135° |
| 2026-05-06 02:40 | 44.72360 | 79.02340 | 29187 ft | 493 kts | 135° |
| 2026-05-06 02:40 | 44.67559 | 79.09241 | 29191 ft | 494 kts | 134° |
| 2026-05-06 02:41 | 44.62760 | 79.16143 | 29198 ft | 494 kts | 134° |
| 2026-05-06 02:41 | 44.57957 | 79.23028 | 29198 ft | 494 kts | 134° |
| 2026-05-06 02:42 | 44.53141 | 79.29910 | 29205 ft | 494 kts | 134° |
| 2026-05-06 02:42 | 44.48327 | 79.36771 | 29206 ft | 494 kts | 134° |
| 2026-05-06 02:43 | 44.43506 | 79.43626 | 29204 ft | 494 kts | 134° |
| 2026-05-06 02:43 | 44.38684 | 79.50469 | 29187 ft | 494 kts | 134° |
| 2026-05-06 02:44 | 44.33854 | 79.57310 | 29188 ft | 494 kts | 134° |
| 2026-05-06 02:44 | 44.29015 | 79.64144 | 29176 ft | 495 kts | 134° |
| 2026-05-06 02:45 | 44.24172 | 79.70967 | 29171 ft | 495 kts | 134° |
| 2026-05-06 02:45 | 44.19320 | 79.77786 | 29158 ft | 495 kts | 134° |
| 2026-05-06 02:46 | 44.14466 | 79.84592 | 29159 ft | 495 kts | 134° |
| 2026-05-06 02:46 | 44.09610 | 79.91387 | 29147 ft | 495 kts | 134° |
| 2026-05-06 02:47 | 44.04733 | 79.98177 | 29145 ft | 496 kts | 134° |
| 2026-05-06 02:47 | 43.99853 | 80.04949 | 29143 ft | 496 kts | 134° |
| 2026-05-06 02:48 | 43.94962 | 80.11731 | 29139 ft | 496 kts | 134° |
| 2026-05-06 02:48 | 43.90069 | 80.18498 | 29135 ft | 496 kts | 134° |
| 2026-05-06 02:49 | 43.85175 | 80.25249 | 29138 ft | 497 kts | 134° |
| 2026-05-06 02:49 | 43.80272 | 80.31998 | 29139 ft | 497 kts | 134° |
| 2026-05-06 02:50 | 43.75360 | 80.38740 | 29143 ft | 497 kts | 134° |
| 2026-05-06 02:50 | 43.70472 | 80.45432 | 29138 ft | 497 kts | 134° |
| 2026-05-06 02:51 | 43.65520 | 80.52197 | 29148 ft | 497 kts | 135° |
| 2026-05-06 02:51 | 43.60598 | 80.58907 | 29149 ft | 497 kts | 135° |
| 2026-05-06 02:52 | 43.55696 | 80.65571 | 29159 ft | 497 kts | 135° |
| 2026-05-06 02:52 | 43.50766 | 80.72260 | 29172 ft | 498 kts | 135° |
| 2026-05-06 02:53 | 43.45755 | 80.78831 | 29179 ft | 498 kts | 137° |
| 2026-05-06 02:53 | 43.40616 | 80.85245 | 29192 ft | 498 kts | 137° |
| 2026-05-06 02:54 | 43.35481 | 80.91648 | 29196 ft | 498 kts | 137° |
| 2026-05-06 02:54 | 43.30356 | 80.98084 | 29203 ft | 499 kts | 137° |
| 2026-05-06 02:55 | 43.25238 | 81.04516 | 29214 ft | 499 kts | 137° |
| 2026-05-06 02:55 | 43.20116 | 81.10935 | 29208 ft | 499 kts | 137° |
| 2026-05-06 02:56 | 43.14990 | 81.17340 | 29232 ft | 499 kts | 137° |
| 2026-05-06 02:56 | 43.09850 | 81.23746 | 29230 ft | 499 kts | 137° |
| 2026-05-06 02:57 | 43.04711 | 81.30137 | 29235 ft | 499 kts | 137° |
| 2026-05-06 02:57 | 42.99562 | 81.36525 | 29232 ft | 500 kts | 137° |
| 2026-05-06 02:58 | 42.94410 | 81.42904 | 29240 ft | 500 kts | 137° |
| 2026-05-06 02:58 | 42.89244 | 81.49284 | 29246 ft | 501 kts | 137° |
| 2026-05-06 02:59 | 42.84073 | 81.55652 | 29247 ft | 502 kts | 137° |
| 2026-05-06 02:59 | 42.78890 | 81.62025 | 29261 ft | 502 kts | 137° |
| 2026-05-06 03:00 | 42.73701 | 81.68392 | 29263 ft | 502 kts | 137° |
| 2026-05-06 03:00 | 42.68504 | 81.74742 | 29268 ft | 502 kts | 137° |
| 2026-05-06 03:01 | 42.63146 | 81.80824 | 29273 ft | 502 kts | 141° |
| 2026-05-06 03:01 | 42.57680 | 81.86712 | 29284 ft | 501 kts | 141° |
| 2026-05-06 03:02 | 42.52249 | 81.92633 | 29287 ft | 501 kts | 140° |
| 2026-05-06 03:02 | 42.46841 | 81.98588 | 29287 ft | 501 kts | 140° |
| 2026-05-06 03:03 | 42.41425 | 82.04549 | 29281 ft | 502 kts | 140° |
| 2026-05-06 03:03 | 42.35997 | 82.10496 | 29274 ft | 502 kts | 140° |
| 2026-05-06 03:04 | 42.30567 | 82.16444 | 29264 ft | 503 kts | 140° |
| 2026-05-06 03:04 | 42.25127 | 82.22378 | 29247 ft | 503 kts | 140° |
| 2026-05-06 03:05 | 42.19685 | 82.28303 | 29239 ft | 503 kts | 140° |
| 2026-05-06 03:05 | 42.14239 | 82.34224 | 29231 ft | 503 kts | 140° |
| 2026-05-06 03:06 | 42.08789 | 82.40137 | 29208 ft | 503 kts | 140° |
| 2026-05-06 03:06 | 42.03336 | 82.46040 | 29206 ft | 503 kts | 140° |
| 2026-05-06 03:07 | 41.97870 | 82.51945 | 29199 ft | 504 kts | 140° |
| 2026-05-06 03:07 | 41.92401 | 82.57839 | 29191 ft | 504 kts | 140° |
| 2026-05-06 03:08 | 41.86924 | 82.63729 | 29181 ft | 504 kts | 140° |
| 2026-05-06 03:08 | 41.81445 | 82.69607 | 29179 ft | 505 kts | 140° |
| 2026-05-06 03:09 | 41.75957 | 82.75484 | 29173 ft | 505 kts | 140° |
| 2026-05-06 03:09 | 41.70495 | 82.81398 | 29167 ft | 504 kts | 137° |
| 2026-05-06 03:10 | 41.65774 | 82.88278 | 29178 ft | 502 kts | 126° |
| 2026-05-06 03:10 | 41.61960 | 82.96083 | 29167 ft | 502 kts | 120° |
| 2026-05-06 03:11 | 41.58206 | 83.03946 | 29168 ft | 502 kts | 121° |
| 2026-05-06 03:11 | 41.54412 | 83.11779 | 29166 ft | 502 kts | 121° |
| 2026-05-06 03:12 | 41.50607 | 83.19589 | 29167 ft | 502 kts | 121° |
| 2026-05-06 03:12 | 41.46794 | 83.27396 | 29168 ft | 502 kts | 121° |
| 2026-05-06 03:13 | 41.43632 | 83.33866 | 29164 ft | 502 kts | 121° |
| 2026-05-06 03:13 | 41.39819 | 83.41652 | 29172 ft | 502 kts | 121° |
| 2026-05-06 03:14 | 41.35998 | 83.49436 | 29154 ft | 502 kts | 121° |
| 2026-05-06 03:14 | 41.32172 | 83.57207 | 29159 ft | 502 kts | 121° |
| 2026-05-06 03:15 | 41.28335 | 83.64980 | 29151 ft | 502 kts | 121° |
| 2026-05-06 03:15 | 41.24493 | 83.72746 | 29154 ft | 503 kts | 121° |
| 2026-05-06 03:16 | 41.20643 | 83.80507 | 29158 ft | 503 kts | 121° |
| 2026-05-06 03:16 | 41.16784 | 83.88265 | 29155 ft | 504 kts | 121° |
| 2026-05-06 03:17 | 41.12916 | 83.96020 | 29155 ft | 504 kts | 121° |
| 2026-05-06 03:17 | 41.09042 | 84.03775 | 29148 ft | 505 kts | 121° |
| 2026-05-06 03:18 | 41.05158 | 84.11528 | 29151 ft | 505 kts | 121° |
| 2026-05-06 03:18 | 41.01254 | 84.19297 | 29147 ft | 507 kts | 121° |
| 2026-05-06 03:19 | 40.97342 | 84.27065 | 29139 ft | 508 kts | 121° |
| 2026-05-06 03:19 | 40.93415 | 84.34846 | 29140 ft | 509 kts | 121° |
| 2026-05-06 03:20 | 40.87498 | 84.46532 | 29137 ft | 511 kts | 121° |
| 2026-05-06 03:20 | 40.83531 | 84.54337 | 29132 ft | 512 kts | 121° |
| 2026-05-06 03:21 | 40.79549 | 84.62152 | 29133 ft | 514 kts | 121° |
| 2026-05-06 03:21 | 40.75552 | 84.69981 | 29130 ft | 515 kts | 122° |
| 2026-05-06 03:22 | 40.71540 | 84.77821 | 29131 ft | 516 kts | 122° |
| 2026-05-06 03:22 | 40.67518 | 84.85659 | 29127 ft | 517 kts | 122° |
| 2026-05-06 03:23 | 40.63486 | 84.93500 | 29124 ft | 517 kts | 122° |
| 2026-05-06 03:23 | 40.59442 | 85.01342 | 29122 ft | 518 kts | 122° |
| 2026-05-06 03:24 | 40.55386 | 85.09187 | 29126 ft | 519 kts | 122° |
| 2026-05-06 03:24 | 40.51325 | 85.17024 | 29125 ft | 519 kts | 123° |
| 2026-05-06 03:25 | 40.47253 | 85.24862 | 29123 ft | 519 kts | 123° |
| 2026-05-06 03:25 | 40.43177 | 85.32687 | 29120 ft | 518 kts | 123° |
| 2026-05-06 03:26 | 40.39101 | 85.40495 | 29118 ft | 518 kts | 123° |
| 2026-05-06 03:26 | 40.35021 | 85.48289 | 29115 ft | 518 kts | 123° |
| 2026-05-06 03:27 | 40.30942 | 85.56063 | 29119 ft | 518 kts | 124° |
| 2026-05-06 03:27 | 40.26850 | 85.63840 | 29117 ft | 518 kts | 124° |
| 2026-05-06 03:28 | 40.22763 | 85.71592 | 29117 ft | 517 kts | 124° |
| 2026-05-06 03:28 | 40.18676 | 85.79324 | 29115 ft | 517 kts | 124° |
| 2026-05-06 03:29 | 40.14584 | 85.87047 | 29117 ft | 516 kts | 124° |
| 2026-05-06 03:29 | 40.10492 | 85.94755 | 29111 ft | 516 kts | 124° |
| 2026-05-06 03:30 | 40.06925 | 86.02871 | 29108 ft | 515 kts | 114° |
| 2026-05-06 03:30 | 40.04485 | 86.11645 | 29112 ft | 514 kts | 108° |
| 2026-05-06 03:31 | 40.02142 | 86.20469 | 29106 ft | 515 kts | 109° |
| 2026-05-06 03:31 | 39.99737 | 86.29272 | 29113 ft | 515 kts | 110° |
| 2026-05-06 03:32 | 39.97312 | 86.38080 | 29111 ft | 516 kts | 110° |
| 2026-05-06 03:32 | 39.94884 | 86.46889 | 29105 ft | 517 kts | 110° |
| 2026-05-06 03:33 | 39.92449 | 86.55709 | 29106 ft | 518 kts | 110° |
| 2026-05-06 03:33 | 39.90002 | 86.64539 | 29105 ft | 518 kts | 111° |
| 2026-05-06 03:34 | 39.87548 | 86.73368 | 29103 ft | 519 kts | 111° |
| 2026-05-06 03:34 | 39.85084 | 86.82205 | 29100 ft | 520 kts | 111° |
| 2026-05-06 03:35 | 39.82609 | 86.91045 | 29105 ft | 520 kts | 111° |
| 2026-05-06 03:35 | 39.80121 | 86.99903 | 29098 ft | 522 kts | 111° |
| 2026-05-06 03:36 | 39.77621 | 87.08771 | 29099 ft | 523 kts | 111° |
| 2026-05-06 03:36 | 39.75111 | 87.17647 | 29100 ft | 523 kts | 112° |
| 2026-05-06 03:37 | 39.72594 | 87.26521 | 29104 ft | 524 kts | 112° |
| 2026-05-06 03:37 | 39.70067 | 87.35394 | 29097 ft | 524 kts | 112° |
| 2026-05-06 03:38 | 39.67529 | 87.44276 | 29097 ft | 524 kts | 112° |
| 2026-05-06 03:38 | 39.64986 | 87.53149 | 29095 ft | 525 kts | 112° |
| 2026-05-06 03:39 | 39.62435 | 87.62016 | 29092 ft | 525 kts | 112° |
| 2026-05-06 03:39 | 39.59877 | 87.70879 | 29086 ft | 525 kts | 112° |
| 2026-05-06 03:40 | 39.57310 | 87.79740 | 29088 ft | 525 kts | 112° |
| 2026-05-06 03:40 | 39.54738 | 87.88593 | 29084 ft | 525 kts | 113° |
| 2026-05-06 03:41 | 39.52160 | 87.97436 | 29087 ft | 525 kts | 113° |
| 2026-05-06 03:41 | 39.49575 | 88.06272 | 29080 ft | 525 kts | 113° |
| 2026-05-06 03:42 | 39.46984 | 88.15103 | 29080 ft | 525 kts | 113° |
| 2026-05-06 03:42 | 39.44383 | 88.23935 | 29082 ft | 525 kts | 113° |
| 2026-05-06 03:43 | 39.41776 | 88.32756 | 29077 ft | 525 kts | 113° |
| 2026-05-06 03:43 | 39.39159 | 88.41585 | 29077 ft | 526 kts | 113° |
| 2026-05-06 03:44 | 39.36534 | 88.50412 | 29077 ft | 526 kts | 113° |
| 2026-05-06 03:44 | 39.33898 | 88.59245 | 29078 ft | 527 kts | 113° |
| 2026-05-06 03:45 | 39.31253 | 88.68081 | 29079 ft | 528 kts | 113° |
| 2026-05-06 03:45 | 39.28599 | 88.76918 | 29081 ft | 528 kts | 114° |
| 2026-05-06 03:46 | 39.25934 | 88.85761 | 29084 ft | 529 kts | 114° |
| 2026-05-06 03:46 | 39.23258 | 88.94611 | 29093 ft | 529 kts | 114° |
| 2026-05-06 03:47 | 39.20576 | 89.03457 | 29098 ft | 529 kts | 114° |
| 2026-05-06 03:47 | 39.17887 | 89.12294 | 29108 ft | 530 kts | 114° |
| 2026-05-06 03:48 | 39.15191 | 89.21125 | 29107 ft | 530 kts | 114° |
| 2026-05-06 03:48 | 39.12485 | 89.29960 | 29119 ft | 530 kts | 114° |
| 2026-05-06 03:49 | 39.09776 | 89.38775 | 29125 ft | 530 kts | 114° |
| 2026-05-06 03:49 | 39.07060 | 89.47587 | 29131 ft | 529 kts | 114° |
| 2026-05-06 03:50 | 39.04798 | 89.54905 | 29136 ft | 529 kts | 114° |
| 2026-05-06 03:50 | 39.02070 | 89.63702 | 29140 ft | 529 kts | 114° |
| 2026-05-06 03:51 | 38.99337 | 89.72489 | 29144 ft | 530 kts | 114° |
| 2026-05-06 03:51 | 38.96598 | 89.81263 | 29143 ft | 529 kts | 114° |
| 2026-05-06 03:52 | 38.93854 | 89.90034 | 29138 ft | 529 kts | 114° |
| 2026-05-06 03:52 | 38.91100 | 89.98802 | 29170 ft | 529 kts | 114° |
| 2026-05-06 03:53 | 38.88339 | 90.07569 | 29163 ft | 530 kts | 114° |
| 2026-05-06 03:53 | 38.85571 | 90.16331 | 29174 ft | 530 kts | 114° |
| 2026-05-06 03:54 | 38.82797 | 90.25082 | 29168 ft | 529 kts | 114° |
| 2026-05-06 03:54 | 38.80021 | 90.33818 | 29176 ft | 529 kts | 114° |
| 2026-05-06 03:55 | 38.77211 | 90.42593 | 29160 ft | 528 kts | 115° |
| 2026-05-06 03:55 | 38.74427 | 90.51234 | 29179 ft | 528 kts | 115° |
| 2026-05-06 03:56 | 38.71606 | 90.59978 | 29163 ft | 528 kts | 115° |
| 2026-05-06 03:56 | 38.68799 | 90.68658 | 29176 ft | 528 kts | 115° |
| 2026-05-06 03:57 | 38.66224 | 90.77460 | 29163 ft | 528 kts | 111° |
| 2026-05-06 03:57 | 38.63786 | 90.86319 | 29162 ft | 528 kts | 111° |
| 2026-05-06 03:58 | 38.61331 | 90.95183 | 29140 ft | 528 kts | 111° |
| 2026-05-06 03:58 | 38.58859 | 91.04014 | 29142 ft | 528 kts | 111° |
| 2026-05-06 03:59 | 38.56374 | 91.12842 | 29139 ft | 528 kts | 111° |
| 2026-05-06 03:59 | 38.53883 | 91.21659 | 29133 ft | 528 kts | 112° |
| 2026-05-06 04:00 | 38.51387 | 91.30465 | 29125 ft | 527 kts | 112° |
| 2026-05-06 04:00 | 38.48885 | 91.39268 | 29121 ft | 527 kts | 112° |
| 2026-05-06 04:01 | 38.46378 | 91.48058 | 29122 ft | 527 kts | 112° |
| 2026-05-06 04:01 | 38.43865 | 91.56844 | 29131 ft | 527 kts | 112° |
| 2026-05-06 04:02 | 38.41348 | 91.65610 | 29132 ft | 527 kts | 112° |
| 2026-05-06 04:02 | 38.38820 | 91.74388 | 29127 ft | 527 kts | 112° |
| 2026-05-06 04:03 | 38.36286 | 91.83154 | 29120 ft | 527 kts | 112° |
| 2026-05-06 04:03 | 38.33747 | 91.91913 | 29125 ft | 527 kts | 112° |
| 2026-05-06 04:04 | 38.31202 | 92.00665 | 29121 ft | 527 kts | 112° |
| 2026-05-06 04:04 | 38.28648 | 92.09415 | 29124 ft | 527 kts | 112° |
| 2026-05-06 04:05 | 38.26091 | 92.18152 | 29116 ft | 527 kts | 112° |
| 2026-05-06 04:05 | 38.23524 | 92.26890 | 29118 ft | 527 kts | 112° |
| 2026-05-06 04:06 | 38.20954 | 92.35617 | 29121 ft | 527 kts | 112° |
| 2026-05-06 04:06 | 38.18378 | 92.44337 | 29120 ft | 527 kts | 112° |
| 2026-05-06 04:07 | 38.15709 | 92.53014 | 29118 ft | 525 kts | 116° |
| 2026-05-06 04:07 | 38.12611 | 92.61397 | 29116 ft | 524 kts | 118° |
| 2026-05-06 04:08 | 38.09418 | 92.69700 | 29120 ft | 523 kts | 118° |
| 2026-05-06 04:08 | 38.06259 | 92.78026 | 29114 ft | 523 kts | 118° |
| 2026-05-06 04:09 | 38.03130 | 92.86370 | 29117 ft | 524 kts | 118° |
| 2026-05-06 04:09 | 38.00007 | 92.94709 | 29117 ft | 523 kts | 118° |
| 2026-05-06 04:10 | 37.96875 | 93.03040 | 29113 ft | 524 kts | 118° |
| 2026-05-06 04:10 | 37.93734 | 93.11365 | 29109 ft | 524 kts | 118° |
| 2026-05-06 04:11 | 37.90588 | 93.19677 | 29110 ft | 524 kts | 118° |
| 2026-05-06 04:11 | 37.87436 | 93.27985 | 29102 ft | 523 kts | 118° |
| 2026-05-06 04:12 | 37.84274 | 93.36295 | 29103 ft | 523 kts | 118° |
| 2026-05-06 04:12 | 37.81112 | 93.44582 | 29101 ft | 523 kts | 118° |
| 2026-05-06 04:13 | 37.77942 | 93.52869 | 29093 ft | 524 kts | 118° |
| 2026-05-06 04:13 | 37.74764 | 93.61154 | 29095 ft | 524 kts | 118° |
| 2026-05-06 04:14 | 37.71582 | 93.69427 | 29085 ft | 523 kts | 118° |
| 2026-05-06 04:14 | 37.68396 | 93.77691 | 29090 ft | 523 kts | 118° |
| 2026-05-06 04:15 | 37.65209 | 93.85932 | 29084 ft | 523 kts | 118° |
| 2026-05-06 04:15 | 37.62017 | 93.94167 | 29087 ft | 522 kts | 118° |
| 2026-05-06 04:16 | 37.58818 | 94.02396 | 29078 ft | 523 kts | 118° |
| 2026-05-06 04:16 | 37.55612 | 94.10622 | 29075 ft | 523 kts | 118° |
| 2026-05-06 04:17 | 37.52400 | 94.18842 | 29076 ft | 523 kts | 118° |
| 2026-05-06 04:17 | 37.49180 | 94.27059 | 29079 ft | 523 kts | 118° |
| 2026-05-06 04:18 | 37.45947 | 94.35290 | 29072 ft | 524 kts | 118° |
| 2026-05-06 04:18 | 37.42711 | 94.43506 | 29071 ft | 524 kts | 119° |
| 2026-05-06 04:19 | 37.39464 | 94.51727 | 29068 ft | 525 kts | 119° |
| 2026-05-06 04:19 | 37.36213 | 94.59939 | 29072 ft | 525 kts | 119° |
| 2026-05-06 04:20 | 37.32951 | 94.68157 | 29078 ft | 525 kts | 119° |
| 2026-05-06 04:20 | 37.29682 | 94.76368 | 29080 ft | 526 kts | 119° |
| 2026-05-06 04:21 | 37.26405 | 94.84582 | 29087 ft | 526 kts | 119° |
| 2026-05-06 04:21 | 37.23116 | 94.92804 | 29091 ft | 527 kts | 119° |
| 2026-05-06 04:22 | 37.19824 | 95.01011 | 29089 ft | 527 kts | 119° |
| 2026-05-06 04:23 | 37.14869 | 95.13322 | 29106 ft | 527 kts | 119° |
| 2026-05-06 04:23 | 37.11561 | 95.21520 | 29088 ft | 527 kts | 119° |
| 2026-05-06 04:24 | 37.08250 | 95.29700 | 29086 ft | 526 kts | 119° |
| 2026-05-06 04:24 | 37.04937 | 95.37865 | 29098 ft | 526 kts | 119° |
| 2026-05-06 04:25 | 37.01619 | 95.46025 | 29099 ft | 526 kts | 119° |
| 2026-05-06 04:25 | 36.98319 | 95.54179 | 29096 ft | 526 kts | 118° |
| 2026-05-06 04:26 | 36.95635 | 95.60999 | 29099 ft | 525 kts | 118° |
| 2026-05-06 04:26 | 36.92425 | 95.69199 | 29101 ft | 525 kts | 118° |
| 2026-05-06 04:27 | 36.89191 | 95.77387 | 29095 ft | 525 kts | 118° |
| 2026-05-06 04:27 | 36.85949 | 95.85551 | 29097 ft | 525 kts | 118° |
| 2026-05-06 04:28 | 36.82704 | 95.93706 | 29097 ft | 524 kts | 118° |
| 2026-05-06 04:28 | 36.79457 | 96.01850 | 29095 ft | 524 kts | 119° |
| 2026-05-06 04:29 | 36.76209 | 96.10000 | 29096 ft | 524 kts | 118° |
| 2026-05-06 04:29 | 36.72992 | 96.18163 | 29090 ft | 524 kts | 118° |
| 2026-05-06 04:30 | 36.69777 | 96.26317 | 29091 ft | 524 kts | 118° |
| 2026-05-06 04:30 | 36.66554 | 96.34457 | 29095 ft | 524 kts | 118° |
| 2026-05-06 04:31 | 36.63322 | 96.42592 | 29086 ft | 524 kts | 119° |
| 2026-05-06 04:31 | 36.60079 | 96.50735 | 29085 ft | 524 kts | 119° |
| 2026-05-06 04:32 | 36.56835 | 96.58861 | 29088 ft | 525 kts | 119° |
| 2026-05-06 04:32 | 36.53610 | 96.67006 | 29085 ft | 525 kts | 118° |
| 2026-05-06 04:33 | 36.50406 | 96.75171 | 29090 ft | 525 kts | 118° |
| 2026-05-06 04:33 | 36.47193 | 96.83332 | 29092 ft | 526 kts | 118° |
| 2026-05-06 04:34 | 36.43969 | 96.91485 | 29095 ft | 526 kts | 118° |
| 2026-05-06 04:34 | 36.40737 | 96.99631 | 29086 ft | 526 kts | 118° |
| 2026-05-06 04:35 | 36.37499 | 97.07773 | 29096 ft | 526 kts | 118° |
| 2026-05-06 04:35 | 36.34258 | 97.15899 | 29099 ft | 525 kts | 118° |
| 2026-05-06 04:36 | 36.31013 | 97.24014 | 29103 ft | 525 kts | 119° |
| 2026-05-06 04:36 | 36.27766 | 97.32124 | 29097 ft | 525 kts | 119° |
| 2026-05-06 04:37 | 36.24509 | 97.40231 | 29097 ft | 525 kts | 119° |
| 2026-05-06 04:37 | 36.21248 | 97.48327 | 29107 ft | 525 kts | 119° |
| 2026-05-06 04:38 | 36.17986 | 97.56409 | 29113 ft | 525 kts | 119° |
| 2026-05-06 04:38 | 36.14709 | 97.64517 | 29151 ft | 531 kts | 119° |
| 2026-05-06 04:39 | 36.11482 | 97.72780 | 29131 ft | 534 kts | 118° |
| 2026-05-06 04:39 | 36.08304 | 97.81077 | 29140 ft | 533 kts | 117° |
| 2026-05-06 04:40 | 36.05119 | 97.89347 | 29149 ft | 533 kts | 118° |
| 2026-05-06 04:40 | 36.01917 | 97.97597 | 29160 ft | 533 kts | 118° |
| 2026-05-06 04:41 | 35.98700 | 98.05840 | 29173 ft | 533 kts | 118° |
| 2026-05-06 04:41 | 35.95481 | 98.14073 | 29180 ft | 533 kts | 118° |
| 2026-05-06 04:42 | 35.92251 | 98.22317 | 29190 ft | 534 kts | 118° |
| 2026-05-06 04:42 | 35.89012 | 98.30566 | 29208 ft | 534 kts | 118° |
| 2026-05-06 04:43 | 35.85763 | 98.38812 | 29215 ft | 535 kts | 118° |
| 2026-05-06 04:43 | 35.82509 | 98.47041 | 29220 ft | 534 kts | 118° |
| 2026-05-06 04:44 | 35.79257 | 98.55261 | 29228 ft | 534 kts | 118° |
| 2026-05-06 04:44 | 35.75999 | 98.63483 | 29225 ft | 534 kts | 118° |
| 2026-05-06 04:45 | 35.72726 | 98.71703 | 29218 ft | 535 kts | 118° |
| 2026-05-06 04:45 | 35.69450 | 98.79915 | 29226 ft | 535 kts | 118° |
| 2026-05-06 04:46 | 35.66168 | 98.88127 | 29217 ft | 535 kts | 118° |
| 2026-05-06 04:46 | 35.62873 | 98.96342 | 29217 ft | 536 kts | 118° |
| 2026-05-06 04:47 | 35.59594 | 99.04497 | 29220 ft | 536 kts | 118° |
| 2026-05-06 04:47 | 35.56265 | 99.12764 | 29211 ft | 536 kts | 118° |
| 2026-05-06 04:48 | 35.52973 | 99.20915 | 29207 ft | 535 kts | 118° |
| 2026-05-06 04:48 | 35.49640 | 99.29149 | 29209 ft | 535 kts | 118° |
| 2026-05-06 04:49 | 35.46328 | 99.37305 | 29218 ft | 534 kts | 119° |
| 2026-05-06 04:49 | 35.43007 | 99.45459 | 29208 ft | 534 kts | 119° |
| 2026-05-06 04:50 | 35.39691 | 99.53594 | 29205 ft | 534 kts | 119° |
| 2026-05-06 04:50 | 35.36386 | 99.61681 | 29196 ft | 534 kts | 119° |
| 2026-05-06 04:51 | 35.33051 | 99.69813 | 29189 ft | 534 kts | 119° |
| 2026-05-06 04:51 | 35.29713 | 99.77930 | 29184 ft | 533 kts | 119° |
| 2026-05-06 04:52 | 35.26356 | 99.86079 | 29186 ft | 532 kts | 119° |
| 2026-05-06 04:52 | 35.23020 | 99.94163 | 29174 ft | 532 kts | 119° |
| 2026-05-06 04:53 | 35.19676 | 100.02232 | 29184 ft | 532 kts | 119° |
| 2026-05-06 04:53 | 35.16328 | 100.10301 | 29170 ft | 532 kts | 119° |
| 2026-05-06 04:54 | 35.12974 | 100.18368 | 29168 ft | 533 kts | 119° |
| 2026-05-06 04:54 | 35.09608 | 100.26438 | 29187 ft | 533 kts | 119° |
| 2026-05-06 04:55 | 35.06235 | 100.34504 | 29165 ft | 534 kts | 119° |
| 2026-05-06 04:55 | 35.02855 | 100.42569 | 29171 ft | 533 kts | 120° |
| 2026-05-06 04:56 | 34.99475 | 100.50628 | 29178 ft | 533 kts | 120° |
| 2026-05-06 04:56 | 34.96113 | 100.58604 | 29179 ft | 532 kts | 120° |
| 2026-05-06 04:57 | 34.92732 | 100.66617 | 29183 ft | 531 kts | 120° |
| 2026-05-06 04:57 | 34.89346 | 100.74621 | 29195 ft | 532 kts | 120° |
| 2026-05-06 04:58 | 34.85930 | 100.82672 | 29199 ft | 532 kts | 120° |
| 2026-05-06 04:58 | 34.82554 | 100.90618 | 29211 ft | 532 kts | 120° |
| 2026-05-06 04:59 | 34.79127 | 100.98663 | 29209 ft | 532 kts | 120° |
| 2026-05-06 04:59 | 34.75715 | 101.06649 | 29213 ft | 532 kts | 120° |
| 2026-05-06 05:00 | 34.72295 | 101.14642 | 29218 ft | 532 kts | 120° |
| 2026-05-06 05:00 | 34.68872 | 101.22620 | 29211 ft | 532 kts | 120° |
| 2026-05-06 05:01 | 34.65442 | 101.30597 | 29209 ft | 532 kts | 120° |
| 2026-05-06 05:01 | 34.62008 | 101.38551 | 29216 ft | 532 kts | 120° |
| 2026-05-06 05:02 | 34.58572 | 101.46511 | 29214 ft | 532 kts | 120° |
| 2026-05-06 05:02 | 34.55133 | 101.54454 | 29207 ft | 532 kts | 120° |
| 2026-05-06 05:03 | 34.51691 | 101.62380 | 29213 ft | 530 kts | 120° |
| 2026-05-06 05:03 | 34.48254 | 101.70280 | 29212 ft | 529 kts | 121° |
| 2026-05-06 05:04 | 34.45397 | 101.76833 | 29218 ft | 529 kts | 121° |
| 2026-05-06 05:04 | 34.41956 | 101.84709 | 29218 ft | 529 kts | 121° |
| 2026-05-06 05:05 | 34.38509 | 101.92578 | 29215 ft | 529 kts | 121° |
| 2026-05-06 05:05 | 34.35055 | 102.00445 | 29212 ft | 529 kts | 121° |
| 2026-05-06 05:06 | 34.31595 | 102.08307 | 29216 ft | 529 kts | 121° |
| 2026-05-06 05:06 | 34.28133 | 102.16161 | 29220 ft | 529 kts | 121° |
| 2026-05-06 05:07 | 34.24664 | 102.24016 | 29210 ft | 529 kts | 121° |
| 2026-05-06 05:07 | 34.21192 | 102.31859 | 29204 ft | 529 kts | 121° |
| 2026-05-06 05:08 | 34.17723 | 102.39705 | 29211 ft | 529 kts | 121° |
| 2026-05-06 05:08 | 34.14346 | 102.47603 | 29200 ft | 529 kts | 120° |
| 2026-05-06 05:09 | 34.10996 | 102.55502 | 29195 ft | 529 kts | 120° |
| 2026-05-06 05:09 | 34.07631 | 102.63385 | 29184 ft | 528 kts | 120° |
| 2026-05-06 05:10 | 34.04253 | 102.71251 | 29189 ft | 528 kts | 120° |
| 2026-05-06 05:10 | 34.00862 | 102.79118 | 29178 ft | 529 kts | 120° |
| 2026-05-06 05:11 | 33.97463 | 102.86991 | 29167 ft | 530 kts | 120° |
| 2026-05-06 05:11 | 33.94053 | 102.94873 | 29162 ft | 530 kts | 120° |
| 2026-05-06 05:12 | 33.90639 | 103.02747 | 29155 ft | 530 kts | 120° |
| 2026-05-06 05:12 | 33.87224 | 103.10607 | 29151 ft | 530 kts | 120° |
| 2026-05-06 05:13 | 33.83805 | 103.18460 | 29147 ft | 529 kts | 120° |
| 2026-05-06 05:13 | 33.80383 | 103.26298 | 29158 ft | 529 kts | 120° |
| 2026-05-06 05:14 | 33.76957 | 103.34130 | 29160 ft | 529 kts | 120° |
| 2026-05-06 05:14 | 33.73524 | 103.41964 | 29162 ft | 530 kts | 120° |
| 2026-05-06 05:15 | 33.70086 | 103.49784 | 29164 ft | 530 kts | 121° |
| 2026-05-06 05:15 | 33.66642 | 103.57597 | 29152 ft | 529 kts | 121° |
| 2026-05-06 05:16 | 33.63208 | 103.65385 | 29164 ft | 528 kts | 121° |
| 2026-05-06 05:16 | 33.59767 | 103.73166 | 29164 ft | 528 kts | 121° |
| 2026-05-06 05:17 | 33.56315 | 103.80946 | 29158 ft | 528 kts | 121° |
| 2026-05-06 05:17 | 33.52861 | 103.88717 | 29160 ft | 528 kts | 121° |
| 2026-05-06 05:18 | 33.49407 | 103.96479 | 29127 ft | 528 kts | 121° |
| 2026-05-06 05:18 | 33.45945 | 104.04234 | 29095 ft | 526 kts | 121° |
| 2026-05-06 05:19 | 33.42499 | 104.11945 | 29115 ft | 527 kts | 121° |
| 2026-05-06 05:19 | 33.39029 | 104.19688 | 29087 ft | 527 kts | 121° |
| 2026-05-06 05:20 | 33.34693 | 104.26548 | 29109 ft | 515 kts | 142° |
| 2026-05-06 05:20 | 33.28725 | 104.31066 | 29063 ft | 501 kts | 161° |
| 2026-05-06 05:21 | 33.22275 | 104.34301 | 29061 ft | 504 kts | 160° |
| 2026-05-06 05:21 | 33.15829 | 104.37712 | 29056 ft | 508 kts | 160° |
| 2026-05-06 05:22 | 33.09368 | 104.41189 | 29022 ft | 511 kts | 159° |
| 2026-05-06 05:22 | 33.02889 | 104.44656 | 29019 ft | 511 kts | 160° |
| 2026-05-06 05:23 | 32.96439 | 104.48099 | 29028 ft | 512 kts | 160° |
| 2026-05-06 05:23 | 32.86642 | 104.53312 | 29003 ft | 512 kts | 159° |
| 2026-05-06 05:24 | 32.80171 | 104.56683 | 28986 ft | 509 kts | 163° |
| 2026-05-06 05:24 | 32.73389 | 104.58772 | 28972 ft | 501 kts | 175° |
| 2026-05-06 05:25 | 32.66487 | 104.59280 | 28979 ft | 495 kts | 182° |
| 2026-05-06 05:25 | 32.59578 | 104.59539 | 28963 ft | 498 kts | 181° |
| 2026-05-06 05:26 | 32.52647 | 104.59872 | 28946 ft | 498 kts | 181° |
| 2026-05-06 05:26 | 32.45717 | 104.60177 | 28925 ft | 498 kts | 181° |
| 2026-05-06 05:27 | 32.38791 | 104.60489 | 28904 ft | 498 kts | 181° |
| 2026-05-06 05:27 | 32.31868 | 104.60863 | 28895 ft | 498 kts | 180° |
| 2026-05-06 05:28 | 32.24955 | 104.61254 | 28880 ft | 497 kts | 180° |
| 2026-05-06 05:28 | 32.18032 | 104.61636 | 28880 ft | 498 kts | 180° |
| 2026-05-06 05:29 | 32.11109 | 104.62011 | 28869 ft | 498 kts | 180° |
| 2026-05-06 05:29 | 32.04190 | 104.62385 | 28865 ft | 498 kts | 180° |
| 2026-05-06 05:30 | 31.97269 | 104.62760 | 28848 ft | 498 kts | 180° |
| 2026-05-06 05:30 | 31.90355 | 104.63133 | 28863 ft | 497 kts | 180° |
| 2026-05-06 05:31 | 31.83446 | 104.63505 | 28847 ft | 497 kts | 180° |
| 2026-05-06 05:31 | 31.76543 | 104.63875 | 28851 ft | 497 kts | 180° |
| 2026-05-06 05:32 | 31.69631 | 104.64162 | 28847 ft | 497 kts | 181° |
| 2026-05-06 05:32 | 31.62726 | 104.64416 | 28841 ft | 497 kts | 181° |
| 2026-05-06 05:33 | 31.55815 | 104.64682 | 28838 ft | 497 kts | 181° |
| 2026-05-06 05:33 | 31.48908 | 104.64956 | 28839 ft | 497 kts | 181° |
| 2026-05-06 05:34 | 31.42005 | 104.65231 | 28834 ft | 496 kts | 181° |
| 2026-05-06 05:34 | 31.35109 | 104.65505 | 28834 ft | 495 kts | 181° |
| 2026-05-06 05:35 | 31.28173 | 104.65779 | 28833 ft | 495 kts | 181° |
| 2026-05-06 05:35 | 31.21286 | 104.66051 | 28830 ft | 495 kts | 181° |
| 2026-05-06 05:36 | 31.14404 | 104.66322 | 28825 ft | 495 kts | 181° |
| 2026-05-06 05:36 | 31.07552 | 104.66592 | 28828 ft | 495 kts | 181° |
| 2026-05-06 05:37 | 31.00620 | 104.67136 | 28819 ft | 497 kts | 177° |
| 2026-05-06 05:37 | 30.93743 | 104.67970 | 28827 ft | 497 kts | 178° |
| 2026-05-06 05:38 | 30.86896 | 104.68756 | 28829 ft | 498 kts | 178° |
| 2026-05-06 05:38 | 30.79992 | 104.69539 | 28819 ft | 498 kts | 178° |
| 2026-05-06 05:39 | 30.73090 | 104.70317 | 28815 ft | 498 kts | 178° |
| 2026-05-06 05:39 | 30.66141 | 104.71101 | 28818 ft | 498 kts | 178° |
| 2026-05-06 05:40 | 30.59230 | 104.71881 | 28825 ft | 499 kts | 179° |
| 2026-05-06 05:40 | 30.52362 | 104.72653 | 28823 ft | 499 kts | 179° |
| 2026-05-06 05:41 | 30.45393 | 104.73430 | 28816 ft | 500 kts | 179° |
| 2026-05-06 05:41 | 30.38459 | 104.74202 | 28814 ft | 500 kts | 179° |
| 2026-05-06 05:42 | 30.32704 | 104.74846 | 28807 ft | 500 kts | 179° |
| 2026-05-06 05:42 | 30.25782 | 104.75617 | 28814 ft | 499 kts | 179° |
| 2026-05-06 05:43 | 30.18866 | 104.76385 | 28807 ft | 499 kts | 179° |
| 2026-05-06 05:43 | 30.11951 | 104.77153 | 28806 ft | 499 kts | 179° |
| 2026-05-06 05:44 | 30.05043 | 104.77918 | 28799 ft | 499 kts | 180° |
| 2026-05-06 05:44 | 29.98128 | 104.78684 | 28802 ft | 499 kts | 180° |
| 2026-05-06 05:45 | 29.91217 | 104.79448 | 28783 ft | 499 kts | 180° |
| 2026-05-06 05:45 | 29.84313 | 104.80210 | 28777 ft | 498 kts | 180° |
| 2026-05-06 05:46 | 29.77417 | 104.80970 | 28771 ft | 498 kts | 180° |
| 2026-05-06 05:46 | 29.70518 | 104.81731 | 28771 ft | 498 kts | 180° |
| 2026-05-06 05:47 | 29.63622 | 104.82489 | 28762 ft | 498 kts | 180° |
| 2026-05-06 05:47 | 29.56722 | 104.83246 | 28756 ft | 498 kts | 180° |
| 2026-05-06 05:48 | 29.49816 | 104.84003 | 28759 ft | 498 kts | 180° |
| 2026-05-06 05:48 | 29.42916 | 104.84759 | 28736 ft | 498 kts | 180° |
| 2026-05-06 05:49 | 29.36019 | 104.85632 | 28738 ft | 502 kts | 175° |
| 2026-05-06 05:49 | 29.29238 | 104.87803 | 28732 ft | 511 kts | 164° |
| 2026-05-06 05:50 | 29.22723 | 104.91167 | 28729 ft | 514 kts | 161° |
| 2026-05-06 05:50 | 29.16183 | 104.94503 | 28728 ft | 514 kts | 162° |
| 2026-05-06 05:51 | 29.09633 | 104.97791 | 28717 ft | 515 kts | 162° |
| 2026-05-06 05:51 | 29.03073 | 105.01091 | 28721 ft | 515 kts | 162° |
| 2026-05-06 05:52 | 28.96510 | 105.04391 | 28723 ft | 515 kts | 162° |
| 2026-05-06 05:52 | 28.89948 | 105.07688 | 28718 ft | 516 kts | 162° |
| 2026-05-06 05:53 | 28.83382 | 105.10994 | 28723 ft | 516 kts | 162° |
| 2026-05-06 05:53 | 28.76819 | 105.14344 | 28724 ft | 518 kts | 159° |
| 2026-05-06 05:54 | 28.70439 | 105.18212 | 28732 ft | 520 kts | 158° |
| 2026-05-06 05:54 | 28.64054 | 105.22110 | 28723 ft | 521 kts | 158° |
| 2026-05-06 05:55 | 28.57653 | 105.25984 | 28729 ft | 521 kts | 158° |
| 2026-05-06 05:55 | 28.51247 | 105.29842 | 28720 ft | 521 kts | 158° |
| 2026-05-06 05:56 | 28.44844 | 105.33695 | 28725 ft | 521 kts | 158° |
| 2026-05-06 05:56 | 28.38433 | 105.37553 | 28741 ft | 521 kts | 158° |
| 2026-05-06 05:57 | 28.32026 | 105.41404 | 28749 ft | 521 kts | 158° |
| 2026-05-06 05:57 | 28.25608 | 105.45252 | 28762 ft | 521 kts | 158° |
| 2026-05-06 05:58 | 28.19194 | 105.49096 | 28759 ft | 521 kts | 158° |
| 2026-05-06 05:58 | 28.12781 | 105.52929 | 28772 ft | 521 kts | 158° |
| 2026-05-06 05:59 | 28.06271 | 105.56382 | 28773 ft | 511 kts | 167° |
| 2026-05-06 05:59 | 27.99472 | 105.58391 | 28773 ft | 499 kts | 177° |
| 2026-05-06 06:00 | 27.92620 | 105.59353 | 28753 ft | 496 kts | 179° |
| 2026-05-06 06:00 | 27.85784 | 105.60460 | 28771 ft | 496 kts | 178° |
| 2026-05-06 06:01 | 27.79036 | 105.62375 | 28749 ft | 506 kts | 166° |
| 2026-05-06 06:01 | 27.72596 | 105.65742 | 28759 ft | 515 kts | 156° |
| 2026-05-06 06:02 | 27.66342 | 105.69681 | 28745 ft | 513 kts | 159° |
| 2026-05-06 06:02 | 27.59931 | 105.73156 | 28765 ft | 511 kts | 161° |
| 2026-05-06 06:03 | 27.53481 | 105.76535 | 28753 ft | 512 kts | 160° |
| 2026-05-06 06:03 | 27.47037 | 105.79969 | 28770 ft | 513 kts | 160° |
| 2026-05-06 06:04 | 27.40585 | 105.83454 | 28760 ft | 515 kts | 160° |
| 2026-05-06 06:04 | 27.34112 | 105.86947 | 28758 ft | 516 kts | 160° |
| 2026-05-06 06:05 | 27.27636 | 105.90429 | 28776 ft | 516 kts | 160° |
| 2026-05-06 06:05 | 27.21156 | 105.93912 | 28772 ft | 517 kts | 160° |
| 2026-05-06 06:06 | 27.14667 | 105.97393 | 28773 ft | 516 kts | 160° |
| 2026-05-06 06:06 | 27.08208 | 106.00919 | 28775 ft | 518 kts | 156° |
| 2026-05-06 06:07 | 27.02424 | 106.05856 | 28789 ft | 529 kts | 139° |
| 2026-05-06 06:07 | 26.97779 | 106.12315 | 28803 ft | 534 kts | 129° |
| 2026-05-06 06:08 | 26.93377 | 106.19028 | 28816 ft | 534 kts | 130° |
| 2026-05-06 06:08 | 26.88910 | 106.25686 | 28815 ft | 534 kts | 131° |
| 2026-05-06 06:09 | 26.84419 | 106.32309 | 28828 ft | 534 kts | 131° |
| 2026-05-06 06:09 | 26.79895 | 106.38978 | 28835 ft | 534 kts | 131° |
| 2026-05-06 06:10 | 26.75437 | 106.45547 | 28837 ft | 533 kts | 131° |
| 2026-05-06 06:10 | 26.70954 | 106.52143 | 28865 ft | 532 kts | 131° |
| 2026-05-06 06:11 | 26.66472 | 106.58732 | 28864 ft | 531 kts | 130° |
| 2026-05-06 06:11 | 26.61995 | 106.65302 | 28873 ft | 531 kts | 130° |
| 2026-05-06 06:12 | 26.57522 | 106.71858 | 28882 ft | 530 kts | 130° |
| 2026-05-06 06:12 | 26.53037 | 106.78403 | 28880 ft | 530 kts | 131° |
| 2026-05-06 06:13 | 26.48017 | 106.84353 | 28887 ft | 525 kts | 140° |
| 2026-05-06 06:13 | 26.42757 | 106.90009 | 28886 ft | 526 kts | 139° |
| 2026-05-06 06:14 | 26.37545 | 106.95735 | 28880 ft | 526 kts | 139° |
| 2026-05-06 06:14 | 26.32344 | 107.01467 | 28890 ft | 525 kts | 139° |
| 2026-05-06 06:15 | 26.27132 | 107.07187 | 28902 ft | 525 kts | 139° |
| 2026-05-06 06:15 | 26.21927 | 107.12898 | 28900 ft | 525 kts | 139° |
| 2026-05-06 06:16 | 26.16720 | 107.18610 | 28906 ft | 525 kts | 139° |
| 2026-05-06 06:16 | 26.11512 | 107.24314 | 28899 ft | 525 kts | 139° |
| 2026-05-06 06:17 | 26.06309 | 107.30007 | 28901 ft | 524 kts | 139° |
| 2026-05-06 06:17 | 26.01100 | 107.35699 | 28899 ft | 524 kts | 139° |
| 2026-05-06 06:18 | 25.95901 | 107.41370 | 28900 ft | 524 kts | 139° |
| 2026-05-06 06:18 | 25.90693 | 107.47046 | 28897 ft | 523 kts | 139° |
| 2026-05-06 06:19 | 25.85496 | 107.52700 | 28899 ft | 523 kts | 139° |
| 2026-05-06 06:19 | 25.81133 | 107.57444 | 28888 ft | 524 kts | 138° |
| 2026-05-06 06:20 | 25.75929 | 107.63095 | 28905 ft | 524 kts | 138° |
| 2026-05-06 06:20 | 25.70741 | 107.68722 | 28902 ft | 525 kts | 138° |
| 2026-05-06 06:21 | 25.65542 | 107.74403 | 28901 ft | 525 kts | 138° |
| 2026-05-06 06:21 | 25.60344 | 107.80101 | 28909 ft | 525 kts | 138° |
| 2026-05-06 06:22 | 25.55136 | 107.85793 | 28907 ft | 526 kts | 138° |
| 2026-05-06 06:22 | 25.49926 | 107.91470 | 28903 ft | 523 kts | 139° |
| 2026-05-06 06:23 | 25.47135 | 107.94008 | 28893 ft | 517 kts | 150° |
| 2026-05-06 06:23 | 25.43961 | 107.95822 | 28910 ft | 512 kts | 162° |
| 2026-05-06 06:23 | 25.37111 | 107.97483 | 28902 ft | 498 kts | 179° |
| 2026-05-06 06:24 | 25.30158 | 107.98164 | 28893 ft | 505 kts | 178° |
| 2026-05-06 06:24 | 25.23125 | 107.99016 | 28890 ft | 510 kts | 177° |
| 2026-05-06 06:25 | 25.16061 | 107.99901 | 28878 ft | 511 kts | 177° |
| 2026-05-06 06:26 | 25.05492 | 108.01212 | 28886 ft | 508 kts | 177° |
| 2026-05-06 06:26 | 24.98472 | 108.02070 | 28874 ft | 507 kts | 177° |
| 2026-05-06 06:27 | 24.91467 | 108.02924 | 28855 ft | 506 kts | 177° |
| 2026-05-06 06:27 | 24.84469 | 108.03776 | 28864 ft | 505 kts | 177° |
| 2026-05-06 06:28 | 24.77477 | 108.04631 | 28860 ft | 506 kts | 177° |
| 2026-05-06 06:28 | 24.70484 | 108.05483 | 28863 ft | 506 kts | 177° |
| 2026-05-06 06:29 | 24.63483 | 108.06334 | 28857 ft | 507 kts | 177° |
| 2026-05-06 06:29 | 24.56469 | 108.07188 | 28852 ft | 507 kts | 177° |
| 2026-05-06 06:30 | 24.49458 | 108.08039 | 28850 ft | 507 kts | 177° |
| 2026-05-06 06:30 | 24.42442 | 108.08894 | 28860 ft | 507 kts | 177° |
| 2026-05-06 06:31 | 24.35420 | 108.09747 | 28865 ft | 508 kts | 177° |
| 2026-05-06 06:31 | 24.28393 | 108.10599 | 28864 ft | 508 kts | 176° |
| 2026-05-06 06:32 | 24.21361 | 108.11453 | 28860 ft | 508 kts | 176° |
| 2026-05-06 06:32 | 24.14328 | 108.12307 | 28860 ft | 508 kts | 176° |
| 2026-05-06 06:33 | 24.07294 | 108.13158 | 28867 ft | 508 kts | 176° |
| 2026-05-06 06:33 | 24.00277 | 108.14007 | 28875 ft | 507 kts | 177° |
| 2026-05-06 06:34 | 23.93259 | 108.14854 | 28864 ft | 506 kts | 176° |
| 2026-05-06 06:34 | 23.89825 | 108.15619 | 28854 ft | 508 kts | 163° |
| 2026-05-06 06:34 | 23.86700 | 108.17448 | 28868 ft | 517 kts | 144° |
| 2026-05-06 06:34 | 23.84174 | 108.20273 | 28886 ft | 526 kts | 127° |
| 2026-05-06 06:35 | 23.82352 | 108.23750 | 28873 ft | 531 kts | 114° |
| 2026-05-06 06:35 | 23.81248 | 108.27605 | 28852 ft | 534 kts | 98° |
| 2026-05-06 06:35 | 23.80989 | 108.31614 | 28885 ft | 528 kts | 91° |
| 2026-05-06 06:36 | 23.80728 | 108.39673 | 28885 ft | 533 kts | 92° |
| 2026-05-06 06:36 | 23.80324 | 108.47774 | 28873 ft | 535 kts | 93° |
| 2026-05-06 06:37 | 23.79851 | 108.55888 | 28875 ft | 534 kts | 94° |
| 2026-05-06 06:37 | 23.79368 | 108.63968 | 28871 ft | 532 kts | 94° |
| 2026-05-06 06:38 | 23.78890 | 108.72009 | 28879 ft | 530 kts | 93° |
| 2026-05-06 06:38 | 23.78412 | 108.80034 | 28879 ft | 529 kts | 93° |
| 2026-05-06 06:39 | 23.77931 | 108.88040 | 28885 ft | 528 kts | 93° |
| 2026-05-06 06:39 | 23.77446 | 108.96049 | 28882 ft | 529 kts | 93° |
| 2026-05-06 06:40 | 23.76956 | 109.04064 | 28883 ft | 529 kts | 93° |
| 2026-05-06 06:40 | 23.76461 | 109.12086 | 28880 ft | 530 kts | 94° |
| 2026-05-06 06:41 | 23.75346 | 109.20029 | 28882 ft | 530 kts | 103° |
| 2026-05-06 06:41 | 23.73668 | 109.27869 | 28887 ft | 530 kts | 103° |
| 2026-05-06 06:42 | 23.72040 | 109.35725 | 28876 ft | 531 kts | 102° |
| 2026-05-06 06:42 | 23.70443 | 109.43585 | 28881 ft | 530 kts | 102° |
| 2026-05-06 06:43 | 23.68851 | 109.51437 | 28876 ft | 529 kts | 102° |
| 2026-05-06 06:43 | 23.67253 | 109.59277 | 28879 ft | 529 kts | 102° |
| 2026-05-06 06:44 | 23.65651 | 109.67105 | 28887 ft | 529 kts | 102° |
| 2026-05-06 06:44 | 23.64045 | 109.74923 | 28890 ft | 529 kts | 102° |
| 2026-05-06 06:45 | 23.62434 | 109.82751 | 28891 ft | 529 kts | 102° |
| 2026-05-06 06:45 | 23.60821 | 109.90570 | 28905 ft | 529 kts | 102° |
| 2026-05-06 06:46 | 23.59201 | 109.98396 | 28887 ft | 529 kts | 102° |
| 2026-05-06 06:46 | 23.57579 | 110.06219 | 28892 ft | 529 kts | 102° |
| 2026-05-06 06:47 | 23.55954 | 110.14031 | 28895 ft | 528 kts | 102° |
| 2026-05-06 06:47 | 23.54326 | 110.21840 | 28890 ft | 528 kts | 102° |
| 2026-05-06 06:48 | 23.52693 | 110.29648 | 28890 ft | 528 kts | 102° |
| 2026-05-06 06:48 | 23.51060 | 110.37447 | 28884 ft | 528 kts | 102° |
| 2026-05-06 06:49 | 23.49465 | 110.45261 | 28885 ft | 528 kts | 102° |
| 2026-05-06 06:49 | 23.47886 | 110.53075 | 28886 ft | 528 kts | 102° |
| 2026-05-06 06:50 | 23.46293 | 110.60897 | 28887 ft | 528 kts | 102° |
| 2026-05-06 06:50 | 23.44695 | 110.68710 | 28900 ft | 528 kts | 102° |
| 2026-05-06 06:51 | 23.43080 | 110.76516 | 28889 ft | 529 kts | 103° |
| 2026-05-06 06:51 | 23.41420 | 110.84323 | 28888 ft | 530 kts | 103° |
| 2026-05-06 06:52 | 23.39753 | 110.92137 | 28893 ft | 530 kts | 103° |
| 2026-05-06 06:52 | 23.38091 | 110.99948 | 28890 ft | 530 kts | 103° |
| 2026-05-06 06:53 | 23.36423 | 111.07771 | 28891 ft | 530 kts | 103° |
| 2026-05-06 06:53 | 23.34754 | 111.15584 | 28896 ft | 530 kts | 103° |
| 2026-05-06 06:54 | 23.33150 | 111.23420 | 28894 ft | 530 kts | 102° |
| 2026-05-06 06:54 | 23.31582 | 111.31258 | 28893 ft | 530 kts | 102° |
| 2026-05-06 06:55 | 23.29997 | 111.39089 | 28897 ft | 530 kts | 103° |
| 2026-05-06 06:55 | 23.28400 | 111.46922 | 28904 ft | 530 kts | 103° |
| 2026-05-06 06:56 | 23.26798 | 111.54748 | 28899 ft | 530 kts | 103° |
| 2026-05-06 06:56 | 23.25131 | 111.62555 | 28910 ft | 530 kts | 103° |
| 2026-05-06 06:57 | 23.23730 | 111.69045 | 28909 ft | 530 kts | 103° |
| 2026-05-06 06:57 | 23.22055 | 111.76851 | 28911 ft | 530 kts | 103° |
| 2026-05-06 06:58 | 23.20384 | 111.84647 | 28914 ft | 530 kts | 103° |
| 2026-05-06 06:58 | 23.18757 | 111.92468 | 28917 ft | 530 kts | 103° |
| 2026-05-06 06:59 | 23.17146 | 112.00286 | 28918 ft | 530 kts | 103° |
| 2026-05-06 06:59 | 23.15523 | 112.08100 | 28913 ft | 530 kts | 103° |
| 2026-05-06 07:00 | 23.13892 | 112.15909 | 28926 ft | 530 kts | 103° |
| 2026-05-06 07:00 | 23.12257 | 112.23714 | 28914 ft | 530 kts | 103° |
| 2026-05-06 07:01 | 23.10620 | 112.31520 | 28929 ft | 530 kts | 103° |
| 2026-05-06 07:01 | 23.08978 | 112.39324 | 28917 ft | 530 kts | 104° |
| 2026-05-06 07:02 | 23.07345 | 112.47122 | 28923 ft | 530 kts | 102° |
| 2026-05-06 07:02 | 23.06475 | 112.55070 | 28933 ft | 531 kts | 94° |
| 2026-05-06 07:03 | 23.06031 | 112.63081 | 28924 ft | 531 kts | 94° |
| 2026-05-06 07:03 | 23.05515 | 112.71088 | 28923 ft | 531 kts | 95° |
| 2026-05-06 07:04 | 23.04968 | 112.79081 | 28927 ft | 531 kts | 95° |
| 2026-05-06 07:04 | 23.04417 | 112.87069 | 28936 ft | 531 kts | 95° |
| 2026-05-06 07:05 | 23.03867 | 112.95070 | 28930 ft | 531 kts | 95° |
| 2026-05-06 07:05 | 23.03320 | 113.03002 | 28910 ft | 523 kts | 95° |
| 2026-05-06 07:06 | 23.02717 | 113.10799 | 28914 ft | 513 kts | 100° |
| 2026-05-06 07:06 | 23.01676 | 113.14498 | 28931 ft | 514 kts | 118° |
| 2026-05-06 07:06 | 22.99651 | 113.17677 | 28947 ft | 513 kts | 136° |
| 2026-05-06 07:06 | 22.96965 | 113.20207 | 28941 ft | 512 kts | 148° |
| 2026-05-06 07:07 | 22.93877 | 113.22095 | 28928 ft | 508 kts | 161° |
| 2026-05-06 07:07 | 22.87229 | 113.24308 | 28926 ft | 498 kts | 167° |
| 2026-05-06 07:08 | 22.80595 | 113.26491 | 28933 ft | 498 kts | 166° |
| 2026-05-06 07:08 | 22.73990 | 113.28773 | 28929 ft | 498 kts | 165° |
| 2026-05-06 07:09 | 22.67390 | 113.31071 | 28931 ft | 498 kts | 165° |
| 2026-05-06 07:09 | 22.60792 | 113.33356 | 28933 ft | 498 kts | 165° |
| 2026-05-06 07:10 | 22.54226 | 113.35631 | 28825 ft | 489 kts | 165° |
| 2026-05-06 07:10 | 22.50995 | 113.36751 | 28310 ft | 486 kts | 165° |
| 2026-05-06 07:10 | 22.47797 | 113.37859 | 27772 ft | 481 kts | 165° |
| 2026-05-06 07:10 | 22.44628 | 113.38955 | 27173 ft | 476 kts | 165° |
| 2026-05-06 07:11 | 22.41500 | 113.40037 | 26614 ft | 473 kts | 165° |
| 2026-05-06 07:11 | 22.38384 | 113.41114 | 26041 ft | 469 kts | 165° |
| 2026-05-06 07:11 | 22.35284 | 113.42184 | 25471 ft | 466 kts | 165° |
| 2026-05-06 07:11 | 22.32206 | 113.43247 | 24888 ft | 463 kts | 165° |
| 2026-05-06 07:12 | 22.29141 | 113.44306 | 24310 ft | 461 kts | 165° |
| 2026-05-06 07:12 | 22.26077 | 113.45362 | 23754 ft | 459 kts | 165° |
| 2026-05-06 07:12 | 22.23067 | 113.46400 | 23113 ft | 458 kts | 165° |
| 2026-05-06 07:12 | 22.20046 | 113.47456 | 22507 ft | 448 kts | 164° |
| 2026-05-06 07:13 | 22.17174 | 113.48502 | 21928 ft | 423 kts | 164° |
| 2026-05-06 07:13 | 22.14465 | 113.49501 | 21418 ft | 400 kts | 163° |
| 2026-05-06 07:13 | 22.11888 | 113.50448 | 20943 ft | 382 kts | 164° |
| 2026-05-06 07:13 | 22.09399 | 113.51356 | 20507 ft | 372 kts | 164° |
| 2026-05-06 07:14 | 22.06953 | 113.52242 | 20087 ft | 372 kts | 164° |
| 2026-05-06 07:14 | 22.04451 | 113.53143 | 19647 ft | 386 kts | 164° |
| 2026-05-06 07:14 | 22.01860 | 113.54078 | 19161 ft | 400 kts | 163° |
| 2026-05-06 07:14 | 21.99176 | 113.55047 | 18653 ft | 411 kts | 163° |
| 2026-05-06 07:15 | 21.96465 | 113.56113 | 18120 ft | 418 kts | 160° |
| 2026-05-06 07:15 | 21.93856 | 113.57312 | 17549 ft | 404 kts | 158° |
| 2026-05-06 07:15 | 21.91354 | 113.58518 | 17026 ft | 383 kts | 158° |
| 2026-05-06 07:15 | 21.88961 | 113.59667 | 16569 ft | 369 kts | 158° |
| 2026-05-06 07:16 | 21.86627 | 113.60768 | 16188 ft | 366 kts | 159° |
| 2026-05-06 07:16 | 21.84242 | 113.61874 | 15756 ft | 381 kts | 159° |
| 2026-05-06 07:16 | 21.81743 | 113.63024 | 15193 ft | 398 kts | 159° |
| 2026-05-06 07:16 | 21.79165 | 113.64209 | 14586 ft | 403 kts | 159° |
| 2026-05-06 07:17 | 21.76634 | 113.65377 | 14059 ft | 387 kts | 159° |
| 2026-05-06 07:17 | 21.74346 | 113.66744 | 13583 ft | 370 kts | 141° |
| 2026-05-06 07:17 | 21.72757 | 113.68845 | 13118 ft | 360 kts | 118° |
| 2026-05-06 07:17 | 21.71967 | 113.71337 | 12955 ft | 344 kts | 99° |
| 2026-05-06 07:18 | 21.71846 | 113.73847 | 12512 ft | 330 kts | 83° |
| 2026-05-06 07:18 | 21.72328 | 113.76194 | 12072 ft | 313 kts | 70° |
| 2026-05-06 07:18 | 21.73172 | 113.78280 | 11648 ft | 297 kts | 58° |
| 2026-05-06 07:18 | 21.74452 | 113.79962 | 11260 ft | 289 kts | 38° |
| 2026-05-06 07:19 | 21.75986 | 113.81363 | 10909 ft | 296 kts | 39° |
| 2026-05-06 07:19 | 21.77548 | 113.82869 | 10592 ft | 298 kts | 40° |
| 2026-05-06 07:19 | 21.79047 | 113.84342 | 10280 ft | 292 kts | 40° |
| 2026-05-06 07:19 | 21.80545 | 113.85811 | 9987 ft | 291 kts | 40° |
| 2026-05-06 07:20 | 21.82054 | 113.87287 | 9684 ft | 292 kts | 41° |
| 2026-05-06 07:20 | 21.83584 | 113.88717 | 9342 ft | 292 kts | 32° |
| 2026-05-06 07:20 | 21.85429 | 113.89491 | 9010 ft | 280 kts | 359° |
| 2026-05-06 07:20 | 21.87301 | 113.89198 | 8775 ft | 276 kts | 338° |
| 2026-05-06 07:21 | 21.89088 | 113.88386 | 8485 ft | 279 kts | 332° |
| 2026-05-06 07:21 | 21.90843 | 113.87510 | 8163 ft | 272 kts | 332° |
| 2026-05-06 07:21 | 21.92548 | 113.86653 | 7879 ft | 270 kts | 332° |
| 2026-05-06 07:21 | 21.94265 | 113.85788 | 7617 ft | 274 kts | 332° |
| 2026-05-06 07:22 | 21.95988 | 113.84920 | 7331 ft | 277 kts | 332° |
| 2026-05-06 07:22 | 21.97737 | 113.84044 | 7038 ft | 276 kts | 332° |
| 2026-05-06 07:22 | 21.99474 | 113.83176 | 6757 ft | 275 kts | 333° |
| 2026-05-06 07:22 | 22.01208 | 113.82310 | 6460 ft | 274 kts | 333° |
| 2026-05-06 07:23 | 22.02940 | 113.81445 | 6161 ft | 273 kts | 333° |
| 2026-05-06 07:23 | 22.04664 | 113.80585 | 5859 ft | 272 kts | 333° |
| 2026-05-06 07:23 | 22.06387 | 113.79728 | 5567 ft | 271 kts | 333° |
| 2026-05-06 07:23 | 22.08079 | 113.78886 | 5273 ft | 269 kts | 333° |
| 2026-05-06 07:24 | 22.09745 | 113.78057 | 4983 ft | 255 kts | 333° |
| 2026-05-06 07:24 | 22.11296 | 113.77283 | 4699 ft | 234 kts | 333° |
| 2026-05-06 07:24 | 22.12715 | 113.76575 | 4434 ft | 218 kts | 333° |
| 2026-05-06 07:24 | 22.14105 | 113.75878 | 4250 ft | 222 kts | 333° |
| 2026-05-06 07:25 | 22.15522 | 113.75169 | 4059 ft | 223 kts | 333° |
| 2026-05-06 07:25 | 22.16919 | 113.74475 | 3811 ft | 218 kts | 334° |
| 2026-05-06 07:25 | 22.18258 | 113.73807 | 3557 ft | 211 kts | 333° |
| 2026-05-06 07:25 | 22.19593 | 113.73287 | 3288 ft | 198 kts | 357° |
| 2026-05-06 07:26 | 22.20847 | 113.73658 | 3107 ft | 186 kts | 33° |
| 2026-05-06 07:26 | 22.22013 | 113.74379 | 3078 ft | 200 kts | 29° |
| 2026-05-06 07:26 | 22.23260 | 113.75067 | 2817 ft | 201 kts | 28° |
| 2026-05-06 07:26 | 22.24502 | 113.75752 | 2441 ft | 198 kts | 29° |
| 2026-05-06 07:27 | 22.25539 | 113.76659 | 2032 ft | 190 kts | 65° |
| 2026-05-06 07:27 | 22.25843 | 113.77987 | 1781 ft | 178 kts | 82° |
| 2026-05-06 07:27 | 22.26213 | 113.79230 | 1628 ft | 167 kts | 69° |
| 2026-05-06 07:27 | 22.26601 | 113.80373 | 1554 ft | 157 kts | 75° |
| 2026-05-06 07:28 | 22.26939 | 113.81476 | 1585 ft | 157 kts | 73° |
| 2026-05-06 07:28 | 22.27303 | 113.82620 | 1444 ft | 166 kts | 73° |
| 2026-05-06 07:28 | 22.28043 | 113.84911 | 1005 ft | 158 kts | 72° |
| 2026-05-06 07:29 | 22.28399 | 113.86015 | 827 ft | 151 kts | 71° |
| 2026-05-06 07:29 | 22.28732 | 113.87041 | 614 ft | 139 kts | 71° |
| 2026-05-06 07:29 | 22.29045 | 113.88003 | 421 ft | 136 kts | 69° |
| 2026-05-06 07:29 | 22.29365 | 113.88970 | 237 ft | 137 kts | 71° |
| 2026-05-06 07:30 | 22.29672 | 113.89965 | 93 ft | 141 kts | 71° |
| 2026-05-06 07:30 | 22.29990 | 113.90932 | 43 ft | 129 kts | 69° |
| 2026-05-06 07:30 | 22.30240 | 113.91717 | 41 ft | 88 kts | 71° |
| 2026-05-06 07:30 | 22.30370 | 113.92188 | 43 ft | 45 kts | 85° |
| 2026-05-06 07:31 | 22.30340 | 113.92379 | 42 ft | 17 kts | 125° |
| 2026-05-06 07:31 | 22.30258 | 113.92332 | 41 ft | 17 kts | 246° |
| 2026-05-06 07:31 | 22.30215 | 113.92199 | 41 ft | 19 kts | 250° |
| 2026-05-06 07:31 | 22.30148 | 113.92045 | 41 ft | 27 kts | 218° |
| 2026-05-06 07:32 | 22.30033 | 113.92065 | 41 ft | 17 kts | 161° |
| 2026-05-06 07:32 | 22.29977 | 113.92154 | 41 ft | 17 kts | 70° |
| 2026-05-06 07:32 | 22.30017 | 113.92270 | 41 ft | 16 kts | 77° |
| 2026-05-06 07:32 | 22.29952 | 113.92335 | 41 ft | 7 kts | 160° |
| 2026-05-06 07:33 | 22.29938 | 113.92341 | 41 ft | 0 kts | 160° |